<?xml version="1.0" encoding="UTF-8" standalone="no" ?>
<gpx xmlns="http://www.topografix.com/GPX/1/1" xmlns:xsi="http://www.w3.org/2001/XMLSchema-instance" xsi:schemaLocation="http://www.topografix.com/GPX/1/1 http://www.topografix.com/GPX/1/1/gpx.xsd" version="1.1" creator="VisuGPX - https://www.visugpx.com">
  <metadata>
    <name>Montardon</name>
    <desc><![CDATA[10km autour de Montardon, près de Pau. La balade est très facile, sur des chemins en bon état. Par temps de pluie, il y a 1km qui peut être boueux, où il faut éviter les baskets!
A faire lorsque les maïs sont ramassés pour apprécier la vue et les nombreux chevreuils.]]></desc>
  </metadata>
  <trk>
    <name><![CDATA[Tracé actuel: 27 NOV 2012 14:11]]></name>
    <trkseg>
      <trkpt lat="43.36545" lon="-0.35592">
        <ele>224.61</ele>
        <time>2012-11-27T13:11:33Z</time>
      </trkpt>
      <trkpt lat="43.36539" lon="-0.35584">
        <ele>214.03</ele>
        <time>2012-11-27T13:11:44Z</time>
      </trkpt>
      <trkpt lat="43.36534" lon="-0.35574">
        <ele>207.78</ele>
        <time>2012-11-27T13:11:51Z</time>
      </trkpt>
      <trkpt lat="43.36528" lon="-0.35564">
        <ele>210.19</ele>
        <time>2012-11-27T13:11:58Z</time>
      </trkpt>
      <trkpt lat="43.36522" lon="-0.35554">
        <ele>202.98</ele>
        <time>2012-11-27T13:12:05Z</time>
      </trkpt>
      <trkpt lat="43.36516" lon="-0.35542">
        <ele>201.53</ele>
        <time>2012-11-27T13:12:13Z</time>
      </trkpt>
      <trkpt lat="43.36509" lon="-0.35531">
        <ele>201.53</ele>
        <time>2012-11-27T13:12:21Z</time>
      </trkpt>
      <trkpt lat="43.36502" lon="-0.35521">
        <ele>201.05</ele>
        <time>2012-11-27T13:12:28Z</time>
      </trkpt>
      <trkpt lat="43.36494" lon="-0.35516">
        <ele>200.57</ele>
        <time>2012-11-27T13:12:35Z</time>
      </trkpt>
      <trkpt lat="43.36484" lon="-0.35511">
        <ele>200.57</ele>
        <time>2012-11-27T13:12:42Z</time>
      </trkpt>
      <trkpt lat="43.36474" lon="-0.35506">
        <ele>200.57</ele>
        <time>2012-11-27T13:12:49Z</time>
      </trkpt>
      <trkpt lat="43.36464" lon="-0.35502">
        <ele>200.57</ele>
        <time>2012-11-27T13:12:57Z</time>
      </trkpt>
      <trkpt lat="43.36455" lon="-0.35497">
        <ele>200.57</ele>
        <time>2012-11-27T13:13:04Z</time>
      </trkpt>
      <trkpt lat="43.36447" lon="-0.35489">
        <ele>200.57</ele>
        <time>2012-11-27T13:13:12Z</time>
      </trkpt>
      <trkpt lat="43.36437" lon="-0.35486">
        <ele>200.09</ele>
        <time>2012-11-27T13:13:19Z</time>
      </trkpt>
      <trkpt lat="43.36427" lon="-0.35482">
        <ele>200.09</ele>
        <time>2012-11-27T13:13:27Z</time>
      </trkpt>
      <trkpt lat="43.36417" lon="-0.35477">
        <ele>200.57</ele>
        <time>2012-11-27T13:13:34Z</time>
      </trkpt>
      <trkpt lat="43.36406" lon="-0.35471">
        <ele>200.09</ele>
        <time>2012-11-27T13:13:42Z</time>
      </trkpt>
      <trkpt lat="43.36397" lon="-0.35459">
        <ele>199.61</ele>
        <time>2012-11-27T13:13:50Z</time>
      </trkpt>
      <trkpt lat="43.36389" lon="-0.35449">
        <ele>199.61</ele>
        <time>2012-11-27T13:13:57Z</time>
      </trkpt>
      <trkpt lat="43.36382" lon="-0.35439">
        <ele>199.13</ele>
        <time>2012-11-27T13:14:04Z</time>
      </trkpt>
      <trkpt lat="43.36375" lon="-0.35427">
        <ele>199.61</ele>
        <time>2012-11-27T13:14:12Z</time>
      </trkpt>
      <trkpt lat="43.3637" lon="-0.35417">
        <ele>200.09</ele>
        <time>2012-11-27T13:14:19Z</time>
      </trkpt>
      <trkpt lat="43.36366" lon="-0.35406">
        <ele>200.57</ele>
        <time>2012-11-27T13:14:26Z</time>
      </trkpt>
      <trkpt lat="43.36362" lon="-0.3539">
        <ele>201.05</ele>
        <time>2012-11-27T13:14:35Z</time>
      </trkpt>
      <trkpt lat="43.36357" lon="-0.35379">
        <ele>200.57</ele>
        <time>2012-11-27T13:14:42Z</time>
      </trkpt>
      <trkpt lat="43.36354" lon="-0.35367">
        <ele>201.53</ele>
        <time>2012-11-27T13:14:50Z</time>
      </trkpt>
      <trkpt lat="43.36353" lon="-0.3535">
        <ele>201.05</ele>
        <time>2012-11-27T13:14:59Z</time>
      </trkpt>
      <trkpt lat="43.36351" lon="-0.35336">
        <ele>201.53</ele>
        <time>2012-11-27T13:15:07Z</time>
      </trkpt>
      <trkpt lat="43.36346" lon="-0.35324">
        <ele>200.57</ele>
        <time>2012-11-27T13:15:14Z</time>
      </trkpt>
      <trkpt lat="43.36341" lon="-0.35313">
        <ele>201.05</ele>
        <time>2012-11-27T13:15:22Z</time>
      </trkpt>
      <trkpt lat="43.36338" lon="-0.35299">
        <ele>200.57</ele>
        <time>2012-11-27T13:15:30Z</time>
      </trkpt>
      <trkpt lat="43.36335" lon="-0.35285">
        <ele>201.05</ele>
        <time>2012-11-27T13:15:39Z</time>
      </trkpt>
      <trkpt lat="43.36333" lon="-0.3527">
        <ele>201.05</ele>
        <time>2012-11-27T13:15:55Z</time>
      </trkpt>
      <trkpt lat="43.36328" lon="-0.35258">
        <ele>201.53</ele>
        <time>2012-11-27T13:16:03Z</time>
      </trkpt>
      <trkpt lat="43.36324" lon="-0.35245">
        <ele>201.05</ele>
        <time>2012-11-27T13:16:11Z</time>
      </trkpt>
      <trkpt lat="43.36319" lon="-0.35232">
        <ele>201.05</ele>
        <time>2012-11-27T13:16:18Z</time>
      </trkpt>
      <trkpt lat="43.36311" lon="-0.35223">
        <ele>202.01</ele>
        <time>2012-11-27T13:16:25Z</time>
      </trkpt>
      <trkpt lat="43.36301" lon="-0.3522">
        <ele>201.05</ele>
        <time>2012-11-27T13:16:32Z</time>
      </trkpt>
      <trkpt lat="43.36293" lon="-0.35217">
        <ele>201.05</ele>
        <time>2012-11-27T13:16:39Z</time>
      </trkpt>
      <trkpt lat="43.36288" lon="-0.35205">
        <ele>201.05</ele>
        <time>2012-11-27T13:16:47Z</time>
      </trkpt>
      <trkpt lat="43.36284" lon="-0.35192">
        <ele>201.05</ele>
        <time>2012-11-27T13:16:55Z</time>
      </trkpt>
      <trkpt lat="43.3628" lon="-0.35181">
        <ele>202.01</ele>
        <time>2012-11-27T13:17:03Z</time>
      </trkpt>
      <trkpt lat="43.36274" lon="-0.3517">
        <ele>201.53</ele>
        <time>2012-11-27T13:17:11Z</time>
      </trkpt>
      <trkpt lat="43.36266" lon="-0.35158">
        <ele>200.57</ele>
        <time>2012-11-27T13:17:18Z</time>
      </trkpt>
      <trkpt lat="43.36258" lon="-0.35149">
        <ele>201.05</ele>
        <time>2012-11-27T13:17:25Z</time>
      </trkpt>
      <trkpt lat="43.36251" lon="-0.35138">
        <ele>201.05</ele>
        <time>2012-11-27T13:17:32Z</time>
      </trkpt>
      <trkpt lat="43.36245" lon="-0.35127">
        <ele>201.05</ele>
        <time>2012-11-27T13:17:39Z</time>
      </trkpt>
      <trkpt lat="43.36238" lon="-0.35118">
        <ele>201.05</ele>
        <time>2012-11-27T13:17:46Z</time>
      </trkpt>
      <trkpt lat="43.36235" lon="-0.35105">
        <ele>201.53</ele>
        <time>2012-11-27T13:17:55Z</time>
      </trkpt>
      <trkpt lat="43.36234" lon="-0.35091">
        <ele>202.49</ele>
        <time>2012-11-27T13:18:04Z</time>
      </trkpt>
      <trkpt lat="43.3624" lon="-0.35076">
        <ele>202.49</ele>
        <time>2012-11-27T13:18:12Z</time>
      </trkpt>
      <trkpt lat="43.36245" lon="-0.35062">
        <ele>202.01</ele>
        <time>2012-11-27T13:18:20Z</time>
      </trkpt>
      <trkpt lat="43.36251" lon="-0.35052">
        <ele>202.49</ele>
        <time>2012-11-27T13:18:28Z</time>
      </trkpt>
      <trkpt lat="43.3626" lon="-0.3504">
        <ele>202.49</ele>
        <time>2012-11-27T13:18:37Z</time>
      </trkpt>
      <trkpt lat="43.36261" lon="-0.35025">
        <ele>202.49</ele>
        <time>2012-11-27T13:18:46Z</time>
      </trkpt>
      <trkpt lat="43.36259" lon="-0.35009">
        <ele>202.49</ele>
        <time>2012-11-27T13:18:54Z</time>
      </trkpt>
      <trkpt lat="43.36253" lon="-0.34994">
        <ele>202.98</ele>
        <time>2012-11-27T13:19:02Z</time>
      </trkpt>
      <trkpt lat="43.36245" lon="-0.34983">
        <ele>202.49</ele>
        <time>2012-11-27T13:19:10Z</time>
      </trkpt>
      <trkpt lat="43.36238" lon="-0.3497">
        <ele>202.01</ele>
        <time>2012-11-27T13:19:17Z</time>
      </trkpt>
      <trkpt lat="43.3623" lon="-0.34962">
        <ele>202.49</ele>
        <time>2012-11-27T13:19:24Z</time>
      </trkpt>
      <trkpt lat="43.36222" lon="-0.34954">
        <ele>202.49</ele>
        <time>2012-11-27T13:19:32Z</time>
      </trkpt>
      <trkpt lat="43.36217" lon="-0.34942">
        <ele>202.98</ele>
        <time>2012-11-27T13:19:41Z</time>
      </trkpt>
      <trkpt lat="43.36211" lon="-0.34931">
        <ele>202.49</ele>
        <time>2012-11-27T13:19:50Z</time>
      </trkpt>
      <trkpt lat="43.36206" lon="-0.34919">
        <ele>202.49</ele>
        <time>2012-11-27T13:19:58Z</time>
      </trkpt>
      <trkpt lat="43.362" lon="-0.34908">
        <ele>203.46</ele>
        <time>2012-11-27T13:20:07Z</time>
      </trkpt>
      <trkpt lat="43.36194" lon="-0.34897">
        <ele>202.98</ele>
        <time>2012-11-27T13:20:15Z</time>
      </trkpt>
      <trkpt lat="43.3619" lon="-0.34885">
        <ele>202.49</ele>
        <time>2012-11-27T13:20:22Z</time>
      </trkpt>
      <trkpt lat="43.36183" lon="-0.34872">
        <ele>202.49</ele>
        <time>2012-11-27T13:20:31Z</time>
      </trkpt>
      <trkpt lat="43.36177" lon="-0.34862">
        <ele>202.98</ele>
        <time>2012-11-27T13:20:38Z</time>
      </trkpt>
      <trkpt lat="43.3617" lon="-0.34853">
        <ele>202.49</ele>
        <time>2012-11-27T13:20:45Z</time>
      </trkpt>
      <trkpt lat="43.3616" lon="-0.34847">
        <ele>202.49</ele>
        <time>2012-11-27T13:20:53Z</time>
      </trkpt>
      <trkpt lat="43.36151" lon="-0.34843">
        <ele>202.49</ele>
        <time>2012-11-27T13:21:00Z</time>
      </trkpt>
      <trkpt lat="43.36143" lon="-0.34842">
        <ele>203.46</ele>
        <time>2012-11-27T13:21:07Z</time>
      </trkpt>
      <trkpt lat="43.36133" lon="-0.34843">
        <ele>202.49</ele>
        <time>2012-11-27T13:21:15Z</time>
      </trkpt>
      <trkpt lat="43.36123" lon="-0.34842">
        <ele>202.98</ele>
        <time>2012-11-27T13:21:24Z</time>
      </trkpt>
      <trkpt lat="43.36115" lon="-0.3484">
        <ele>202.98</ele>
        <time>2012-11-27T13:21:32Z</time>
      </trkpt>
      <trkpt lat="43.36107" lon="-0.34834">
        <ele>202.98</ele>
        <time>2012-11-27T13:21:40Z</time>
      </trkpt>
      <trkpt lat="43.36099" lon="-0.34823">
        <ele>203.46</ele>
        <time>2012-11-27T13:21:48Z</time>
      </trkpt>
      <trkpt lat="43.36094" lon="-0.34812">
        <ele>202.98</ele>
        <time>2012-11-27T13:21:57Z</time>
      </trkpt>
      <trkpt lat="43.36091" lon="-0.34799">
        <ele>203.46</ele>
        <time>2012-11-27T13:22:05Z</time>
      </trkpt>
      <trkpt lat="43.36087" lon="-0.34786">
        <ele>202.98</ele>
        <time>2012-11-27T13:22:13Z</time>
      </trkpt>
      <trkpt lat="43.36082" lon="-0.34774">
        <ele>203.46</ele>
        <time>2012-11-27T13:22:21Z</time>
      </trkpt>
      <trkpt lat="43.36074" lon="-0.34765">
        <ele>203.46</ele>
        <time>2012-11-27T13:22:29Z</time>
      </trkpt>
      <trkpt lat="43.36067" lon="-0.34756">
        <ele>202.98</ele>
        <time>2012-11-27T13:22:37Z</time>
      </trkpt>
      <trkpt lat="43.36061" lon="-0.34747">
        <ele>203.46</ele>
        <time>2012-11-27T13:22:46Z</time>
      </trkpt>
      <trkpt lat="43.36056" lon="-0.34734">
        <ele>203.46</ele>
        <time>2012-11-27T13:22:56Z</time>
      </trkpt>
      <trkpt lat="43.36052" lon="-0.34723">
        <ele>203.46</ele>
        <time>2012-11-27T13:23:04Z</time>
      </trkpt>
      <trkpt lat="43.36048" lon="-0.3471">
        <ele>203.94</ele>
        <time>2012-11-27T13:23:13Z</time>
      </trkpt>
      <trkpt lat="43.36045" lon="-0.34697">
        <ele>203.46</ele>
        <time>2012-11-27T13:23:21Z</time>
      </trkpt>
      <trkpt lat="43.36042" lon="-0.34684">
        <ele>203.94</ele>
        <time>2012-11-27T13:23:29Z</time>
      </trkpt>
      <trkpt lat="43.3604" lon="-0.34671">
        <ele>203.46</ele>
        <time>2012-11-27T13:23:37Z</time>
      </trkpt>
      <trkpt lat="43.36037" lon="-0.34659">
        <ele>203.94</ele>
        <time>2012-11-27T13:23:45Z</time>
      </trkpt>
      <trkpt lat="43.36031" lon="-0.3465">
        <ele>204.42</ele>
        <time>2012-11-27T13:23:54Z</time>
      </trkpt>
      <trkpt lat="43.3603" lon="-0.34636">
        <ele>203.46</ele>
        <time>2012-11-27T13:24:02Z</time>
      </trkpt>
      <trkpt lat="43.36034" lon="-0.34625">
        <ele>204.42</ele>
        <time>2012-11-27T13:24:10Z</time>
      </trkpt>
      <trkpt lat="43.36042" lon="-0.34617">
        <ele>203.46</ele>
        <time>2012-11-27T13:24:18Z</time>
      </trkpt>
      <trkpt lat="43.36052" lon="-0.34612">
        <ele>203.46</ele>
        <time>2012-11-27T13:24:26Z</time>
      </trkpt>
      <trkpt lat="43.36062" lon="-0.34609">
        <ele>203.94</ele>
        <time>2012-11-27T13:24:34Z</time>
      </trkpt>
      <trkpt lat="43.36072" lon="-0.34608">
        <ele>204.9</ele>
        <time>2012-11-27T13:24:42Z</time>
      </trkpt>
      <trkpt lat="43.36081" lon="-0.34601">
        <ele>203.94</ele>
        <time>2012-11-27T13:24:50Z</time>
      </trkpt>
      <trkpt lat="43.3609" lon="-0.34595">
        <ele>203.94</ele>
        <time>2012-11-27T13:24:57Z</time>
      </trkpt>
      <trkpt lat="43.36098" lon="-0.34588">
        <ele>203.94</ele>
        <time>2012-11-27T13:25:04Z</time>
      </trkpt>
      <trkpt lat="43.36107" lon="-0.34581">
        <ele>204.9</ele>
        <time>2012-11-27T13:25:12Z</time>
      </trkpt>
      <trkpt lat="43.36115" lon="-0.34574">
        <ele>206.34</ele>
        <time>2012-11-27T13:25:21Z</time>
      </trkpt>
      <trkpt lat="43.36123" lon="-0.34569">
        <ele>206.82</ele>
        <time>2012-11-27T13:25:29Z</time>
      </trkpt>
      <trkpt lat="43.36134" lon="-0.34565">
        <ele>206.82</ele>
        <time>2012-11-27T13:25:38Z</time>
      </trkpt>
      <trkpt lat="43.36142" lon="-0.34561">
        <ele>207.78</ele>
        <time>2012-11-27T13:25:46Z</time>
      </trkpt>
      <trkpt lat="43.36152" lon="-0.34558">
        <ele>208.26</ele>
        <time>2012-11-27T13:25:54Z</time>
      </trkpt>
      <trkpt lat="43.36161" lon="-0.34554">
        <ele>208.26</ele>
        <time>2012-11-27T13:26:02Z</time>
      </trkpt>
      <trkpt lat="43.36171" lon="-0.34552">
        <ele>208.26</ele>
        <time>2012-11-27T13:26:10Z</time>
      </trkpt>
      <trkpt lat="43.3618" lon="-0.34548">
        <ele>208.26</ele>
        <time>2012-11-27T13:26:18Z</time>
      </trkpt>
      <trkpt lat="43.36189" lon="-0.34545">
        <ele>208.74</ele>
        <time>2012-11-27T13:26:26Z</time>
      </trkpt>
      <trkpt lat="43.36198" lon="-0.34541">
        <ele>209.22</ele>
        <time>2012-11-27T13:26:34Z</time>
      </trkpt>
      <trkpt lat="43.36208" lon="-0.34537">
        <ele>209.22</ele>
        <time>2012-11-27T13:26:43Z</time>
      </trkpt>
      <trkpt lat="43.36217" lon="-0.34533">
        <ele>209.22</ele>
        <time>2012-11-27T13:26:51Z</time>
      </trkpt>
      <trkpt lat="43.36226" lon="-0.34528">
        <ele>208.74</ele>
        <time>2012-11-27T13:26:59Z</time>
      </trkpt>
      <trkpt lat="43.36235" lon="-0.34524">
        <ele>209.22</ele>
        <time>2012-11-27T13:27:06Z</time>
      </trkpt>
      <trkpt lat="43.36243" lon="-0.34518">
        <ele>208.74</ele>
        <time>2012-11-27T13:27:14Z</time>
      </trkpt>
      <trkpt lat="43.36252" lon="-0.34511">
        <ele>209.7</ele>
        <time>2012-11-27T13:27:22Z</time>
      </trkpt>
      <trkpt lat="43.3626" lon="-0.34504">
        <ele>209.7</ele>
        <time>2012-11-27T13:27:30Z</time>
      </trkpt>
      <trkpt lat="43.36268" lon="-0.34496">
        <ele>209.7</ele>
        <time>2012-11-27T13:27:38Z</time>
      </trkpt>
      <trkpt lat="43.36275" lon="-0.34486">
        <ele>209.7</ele>
        <time>2012-11-27T13:27:46Z</time>
      </trkpt>
      <trkpt lat="43.36282" lon="-0.34478">
        <ele>209.7</ele>
        <time>2012-11-27T13:27:53Z</time>
      </trkpt>
      <trkpt lat="43.36287" lon="-0.34468">
        <ele>209.22</ele>
        <time>2012-11-27T13:28:01Z</time>
      </trkpt>
      <trkpt lat="43.36293" lon="-0.34454">
        <ele>209.7</ele>
        <time>2012-11-27T13:28:09Z</time>
      </trkpt>
      <trkpt lat="43.36296" lon="-0.34442">
        <ele>209.7</ele>
        <time>2012-11-27T13:28:16Z</time>
      </trkpt>
      <trkpt lat="43.36298" lon="-0.34429">
        <ele>209.7</ele>
        <time>2012-11-27T13:28:24Z</time>
      </trkpt>
      <trkpt lat="43.36301" lon="-0.34416">
        <ele>210.19</ele>
        <time>2012-11-27T13:28:31Z</time>
      </trkpt>
      <trkpt lat="43.36304" lon="-0.34404">
        <ele>209.22</ele>
        <time>2012-11-27T13:28:39Z</time>
      </trkpt>
      <trkpt lat="43.36306" lon="-0.3439">
        <ele>210.19</ele>
        <time>2012-11-27T13:28:47Z</time>
      </trkpt>
      <trkpt lat="43.36303" lon="-0.34377">
        <ele>210.19</ele>
        <time>2012-11-27T13:28:55Z</time>
      </trkpt>
      <trkpt lat="43.363" lon="-0.34364">
        <ele>209.7</ele>
        <time>2012-11-27T13:29:02Z</time>
      </trkpt>
      <trkpt lat="43.36298" lon="-0.34351">
        <ele>209.7</ele>
        <time>2012-11-27T13:29:09Z</time>
      </trkpt>
      <trkpt lat="43.36295" lon="-0.34338">
        <ele>210.19</ele>
        <time>2012-11-27T13:29:16Z</time>
      </trkpt>
      <trkpt lat="43.36293" lon="-0.34326">
        <ele>209.7</ele>
        <time>2012-11-27T13:29:24Z</time>
      </trkpt>
      <trkpt lat="43.36287" lon="-0.34314">
        <ele>210.19</ele>
        <time>2012-11-27T13:29:32Z</time>
      </trkpt>
      <trkpt lat="43.36281" lon="-0.34301">
        <ele>210.19</ele>
        <time>2012-11-27T13:29:40Z</time>
      </trkpt>
      <trkpt lat="43.36276" lon="-0.34291">
        <ele>210.19</ele>
        <time>2012-11-27T13:29:47Z</time>
      </trkpt>
      <trkpt lat="43.36271" lon="-0.34282">
        <ele>209.7</ele>
        <time>2012-11-27T13:29:54Z</time>
      </trkpt>
      <trkpt lat="43.36266" lon="-0.34272">
        <ele>210.19</ele>
        <time>2012-11-27T13:30:01Z</time>
      </trkpt>
      <trkpt lat="43.36264" lon="-0.3426">
        <ele>210.67</ele>
        <time>2012-11-27T13:30:09Z</time>
      </trkpt>
      <trkpt lat="43.36263" lon="-0.34248">
        <ele>210.67</ele>
        <time>2012-11-27T13:30:16Z</time>
      </trkpt>
      <trkpt lat="43.36264" lon="-0.34235">
        <ele>210.19</ele>
        <time>2012-11-27T13:30:23Z</time>
      </trkpt>
      <trkpt lat="43.36262" lon="-0.34222">
        <ele>210.19</ele>
        <time>2012-11-27T13:30:31Z</time>
      </trkpt>
      <trkpt lat="43.36255" lon="-0.34211">
        <ele>210.67</ele>
        <time>2012-11-27T13:30:40Z</time>
      </trkpt>
      <trkpt lat="43.36248" lon="-0.34202">
        <ele>211.15</ele>
        <time>2012-11-27T13:30:48Z</time>
      </trkpt>
      <trkpt lat="43.36239" lon="-0.34193">
        <ele>211.15</ele>
        <time>2012-11-27T13:30:56Z</time>
      </trkpt>
      <trkpt lat="43.3623" lon="-0.34183">
        <ele>211.15</ele>
        <time>2012-11-27T13:31:04Z</time>
      </trkpt>
      <trkpt lat="43.36222" lon="-0.34176">
        <ele>210.67</ele>
        <time>2012-11-27T13:31:12Z</time>
      </trkpt>
      <trkpt lat="43.36213" lon="-0.3417">
        <ele>211.63</ele>
        <time>2012-11-27T13:31:20Z</time>
      </trkpt>
      <trkpt lat="43.36205" lon="-0.34163">
        <ele>211.15</ele>
        <time>2012-11-27T13:31:29Z</time>
      </trkpt>
      <trkpt lat="43.36196" lon="-0.34155">
        <ele>211.63</ele>
        <time>2012-11-27T13:31:38Z</time>
      </trkpt>
      <trkpt lat="43.36188" lon="-0.34148">
        <ele>211.15</ele>
        <time>2012-11-27T13:31:46Z</time>
      </trkpt>
      <trkpt lat="43.3618" lon="-0.34143">
        <ele>211.63</ele>
        <time>2012-11-27T13:31:54Z</time>
      </trkpt>
      <trkpt lat="43.3617" lon="-0.34136">
        <ele>211.63</ele>
        <time>2012-11-27T13:32:03Z</time>
      </trkpt>
      <trkpt lat="43.36161" lon="-0.34126">
        <ele>212.11</ele>
        <time>2012-11-27T13:32:11Z</time>
      </trkpt>
      <trkpt lat="43.36156" lon="-0.34116">
        <ele>212.59</ele>
        <time>2012-11-27T13:32:19Z</time>
      </trkpt>
      <trkpt lat="43.36152" lon="-0.34105">
        <ele>212.59</ele>
        <time>2012-11-27T13:32:27Z</time>
      </trkpt>
      <trkpt lat="43.36151" lon="-0.34091">
        <ele>213.07</ele>
        <time>2012-11-27T13:32:36Z</time>
      </trkpt>
      <trkpt lat="43.36151" lon="-0.34077">
        <ele>212.59</ele>
        <time>2012-11-27T13:32:44Z</time>
      </trkpt>
      <trkpt lat="43.36154" lon="-0.34063">
        <ele>212.59</ele>
        <time>2012-11-27T13:32:52Z</time>
      </trkpt>
      <trkpt lat="43.36155" lon="-0.34052">
        <ele>213.07</ele>
        <time>2012-11-27T13:33:16Z</time>
      </trkpt>
      <trkpt lat="43.3616" lon="-0.3404">
        <ele>213.07</ele>
        <time>2012-11-27T13:33:28Z</time>
      </trkpt>
      <trkpt lat="43.36165" lon="-0.34032">
        <ele>213.55</ele>
        <time>2012-11-27T13:33:39Z</time>
      </trkpt>
      <trkpt lat="43.36167" lon="-0.34023">
        <ele>214.03</ele>
        <time>2012-11-27T13:34:05Z</time>
      </trkpt>
      <trkpt lat="43.36172" lon="-0.34012">
        <ele>213.55</ele>
        <time>2012-11-27T13:34:14Z</time>
      </trkpt>
      <trkpt lat="43.36168" lon="-0.34">
        <ele>214.03</ele>
        <time>2012-11-27T13:34:23Z</time>
      </trkpt>
      <trkpt lat="43.36159" lon="-0.33992">
        <ele>214.03</ele>
        <time>2012-11-27T13:34:31Z</time>
      </trkpt>
      <trkpt lat="43.36151" lon="-0.33985">
        <ele>214.03</ele>
        <time>2012-11-27T13:34:39Z</time>
      </trkpt>
      <trkpt lat="43.36143" lon="-0.3398">
        <ele>213.55</ele>
        <time>2012-11-27T13:34:47Z</time>
      </trkpt>
      <trkpt lat="43.36135" lon="-0.33974">
        <ele>213.55</ele>
        <time>2012-11-27T13:34:55Z</time>
      </trkpt>
      <trkpt lat="43.36126" lon="-0.3397">
        <ele>213.55</ele>
        <time>2012-11-27T13:35:03Z</time>
      </trkpt>
      <trkpt lat="43.36118" lon="-0.33966">
        <ele>214.03</ele>
        <time>2012-11-27T13:35:12Z</time>
      </trkpt>
      <trkpt lat="43.3611" lon="-0.3396">
        <ele>214.03</ele>
        <time>2012-11-27T13:35:20Z</time>
      </trkpt>
      <trkpt lat="43.36101" lon="-0.33953">
        <ele>214.03</ele>
        <time>2012-11-27T13:35:28Z</time>
      </trkpt>
      <trkpt lat="43.36095" lon="-0.33946">
        <ele>214.03</ele>
        <time>2012-11-27T13:35:35Z</time>
      </trkpt>
      <trkpt lat="43.36088" lon="-0.33937">
        <ele>214.51</ele>
        <time>2012-11-27T13:35:43Z</time>
      </trkpt>
      <trkpt lat="43.36083" lon="-0.33927">
        <ele>214.03</ele>
        <time>2012-11-27T13:35:51Z</time>
      </trkpt>
      <trkpt lat="43.36076" lon="-0.33917">
        <ele>214.03</ele>
        <time>2012-11-27T13:35:59Z</time>
      </trkpt>
      <trkpt lat="43.3607" lon="-0.33907">
        <ele>214.51</ele>
        <time>2012-11-27T13:36:06Z</time>
      </trkpt>
      <trkpt lat="43.36064" lon="-0.33897">
        <ele>214.51</ele>
        <time>2012-11-27T13:36:14Z</time>
      </trkpt>
      <trkpt lat="43.36058" lon="-0.33887">
        <ele>214.51</ele>
        <time>2012-11-27T13:36:22Z</time>
      </trkpt>
      <trkpt lat="43.36053" lon="-0.33877">
        <ele>214.51</ele>
        <time>2012-11-27T13:36:29Z</time>
      </trkpt>
      <trkpt lat="43.36047" lon="-0.33867">
        <ele>214.51</ele>
        <time>2012-11-27T13:36:36Z</time>
      </trkpt>
      <trkpt lat="43.36042" lon="-0.33857">
        <ele>214.51</ele>
        <time>2012-11-27T13:36:43Z</time>
      </trkpt>
      <trkpt lat="43.36036" lon="-0.33847">
        <ele>214.51</ele>
        <time>2012-11-27T13:36:51Z</time>
      </trkpt>
      <trkpt lat="43.36029" lon="-0.33838">
        <ele>214.03</ele>
        <time>2012-11-27T13:36:59Z</time>
      </trkpt>
      <trkpt lat="43.36019" lon="-0.33836">
        <ele>214.03</ele>
        <time>2012-11-27T13:37:08Z</time>
      </trkpt>
      <trkpt lat="43.36011" lon="-0.33841">
        <ele>213.55</ele>
        <time>2012-11-27T13:37:16Z</time>
      </trkpt>
      <trkpt lat="43.36002" lon="-0.33847">
        <ele>214.03</ele>
        <time>2012-11-27T13:37:24Z</time>
      </trkpt>
      <trkpt lat="43.35992" lon="-0.33854">
        <ele>213.55</ele>
        <time>2012-11-27T13:37:32Z</time>
      </trkpt>
      <trkpt lat="43.35984" lon="-0.33858">
        <ele>213.07</ele>
        <time>2012-11-27T13:37:39Z</time>
      </trkpt>
      <trkpt lat="43.35976" lon="-0.33864">
        <ele>213.55</ele>
        <time>2012-11-27T13:37:46Z</time>
      </trkpt>
      <trkpt lat="43.35968" lon="-0.3387">
        <ele>213.07</ele>
        <time>2012-11-27T13:37:54Z</time>
      </trkpt>
      <trkpt lat="43.35959" lon="-0.33876">
        <ele>213.55</ele>
        <time>2012-11-27T13:38:01Z</time>
      </trkpt>
      <trkpt lat="43.3595" lon="-0.33881">
        <ele>213.55</ele>
        <time>2012-11-27T13:38:08Z</time>
      </trkpt>
      <trkpt lat="43.35942" lon="-0.33887">
        <ele>212.59</ele>
        <time>2012-11-27T13:38:15Z</time>
      </trkpt>
      <trkpt lat="43.35934" lon="-0.33892">
        <ele>212.59</ele>
        <time>2012-11-27T13:38:22Z</time>
      </trkpt>
      <trkpt lat="43.35924" lon="-0.33894">
        <ele>212.11</ele>
        <time>2012-11-27T13:38:29Z</time>
      </trkpt>
      <trkpt lat="43.35915" lon="-0.33892">
        <ele>212.11</ele>
        <time>2012-11-27T13:38:37Z</time>
      </trkpt>
      <trkpt lat="43.35909" lon="-0.33881">
        <ele>212.59</ele>
        <time>2012-11-27T13:38:45Z</time>
      </trkpt>
      <trkpt lat="43.35906" lon="-0.33871">
        <ele>212.59</ele>
        <time>2012-11-27T13:38:53Z</time>
      </trkpt>
      <trkpt lat="43.35901" lon="-0.33859">
        <ele>213.07</ele>
        <time>2012-11-27T13:39:01Z</time>
      </trkpt>
      <trkpt lat="43.35895" lon="-0.33848">
        <ele>212.59</ele>
        <time>2012-11-27T13:39:09Z</time>
      </trkpt>
      <trkpt lat="43.35886" lon="-0.33843">
        <ele>213.07</ele>
        <time>2012-11-27T13:39:17Z</time>
      </trkpt>
      <trkpt lat="43.35875" lon="-0.33843">
        <ele>213.07</ele>
        <time>2012-11-27T13:39:25Z</time>
      </trkpt>
      <trkpt lat="43.35866" lon="-0.33846">
        <ele>213.07</ele>
        <time>2012-11-27T13:39:33Z</time>
      </trkpt>
      <trkpt lat="43.35856" lon="-0.33848">
        <ele>213.55</ele>
        <time>2012-11-27T13:39:41Z</time>
      </trkpt>
      <trkpt lat="43.35847" lon="-0.33853">
        <ele>214.03</ele>
        <time>2012-11-27T13:39:49Z</time>
      </trkpt>
      <trkpt lat="43.35836" lon="-0.33855">
        <ele>214.03</ele>
        <time>2012-11-27T13:39:57Z</time>
      </trkpt>
      <trkpt lat="43.35828" lon="-0.33847">
        <ele>214.03</ele>
        <time>2012-11-27T13:40:04Z</time>
      </trkpt>
      <trkpt lat="43.35825" lon="-0.33837">
        <ele>214.03</ele>
        <time>2012-11-27T13:40:11Z</time>
      </trkpt>
      <trkpt lat="43.35822" lon="-0.33826">
        <ele>214.51</ele>
        <time>2012-11-27T13:40:19Z</time>
      </trkpt>
      <trkpt lat="43.35818" lon="-0.33814">
        <ele>214.51</ele>
        <time>2012-11-27T13:40:27Z</time>
      </trkpt>
      <trkpt lat="43.35815" lon="-0.33801">
        <ele>214.51</ele>
        <time>2012-11-27T13:40:35Z</time>
      </trkpt>
      <trkpt lat="43.35811" lon="-0.3379">
        <ele>214.51</ele>
        <time>2012-11-27T13:40:42Z</time>
      </trkpt>
      <trkpt lat="43.35808" lon="-0.33778">
        <ele>214.99</ele>
        <time>2012-11-27T13:40:49Z</time>
      </trkpt>
      <trkpt lat="43.35805" lon="-0.33768">
        <ele>214.99</ele>
        <time>2012-11-27T13:40:56Z</time>
      </trkpt>
      <trkpt lat="43.35802" lon="-0.33755">
        <ele>214.99</ele>
        <time>2012-11-27T13:41:04Z</time>
      </trkpt>
      <trkpt lat="43.35798" lon="-0.33743">
        <ele>214.99</ele>
        <time>2012-11-27T13:41:12Z</time>
      </trkpt>
      <trkpt lat="43.35794" lon="-0.33732">
        <ele>214.99</ele>
        <time>2012-11-27T13:41:19Z</time>
      </trkpt>
      <trkpt lat="43.3579" lon="-0.33721">
        <ele>214.51</ele>
        <time>2012-11-27T13:41:26Z</time>
      </trkpt>
      <trkpt lat="43.35786" lon="-0.3371">
        <ele>215.47</ele>
        <time>2012-11-27T13:41:33Z</time>
      </trkpt>
      <trkpt lat="43.35783" lon="-0.33698">
        <ele>214.51</ele>
        <time>2012-11-27T13:41:41Z</time>
      </trkpt>
      <trkpt lat="43.3578" lon="-0.33686">
        <ele>214.99</ele>
        <time>2012-11-27T13:41:48Z</time>
      </trkpt>
      <trkpt lat="43.35777" lon="-0.33674">
        <ele>214.99</ele>
        <time>2012-11-27T13:41:56Z</time>
      </trkpt>
      <trkpt lat="43.35776" lon="-0.3366">
        <ele>214.99</ele>
        <time>2012-11-27T13:42:04Z</time>
      </trkpt>
      <trkpt lat="43.35776" lon="-0.33647">
        <ele>214.99</ele>
        <time>2012-11-27T13:42:11Z</time>
      </trkpt>
      <trkpt lat="43.35776" lon="-0.33635">
        <ele>214.99</ele>
        <time>2012-11-27T13:42:18Z</time>
      </trkpt>
      <trkpt lat="43.35777" lon="-0.33621">
        <ele>214.99</ele>
        <time>2012-11-27T13:42:26Z</time>
      </trkpt>
      <trkpt lat="43.35777" lon="-0.33608">
        <ele>214.51</ele>
        <time>2012-11-27T13:42:34Z</time>
      </trkpt>
      <trkpt lat="43.35777" lon="-0.33594">
        <ele>214.99</ele>
        <time>2012-11-27T13:42:42Z</time>
      </trkpt>
      <trkpt lat="43.35775" lon="-0.3358">
        <ele>215.47</ele>
        <time>2012-11-27T13:42:50Z</time>
      </trkpt>
      <trkpt lat="43.3577" lon="-0.33566">
        <ele>215.95</ele>
        <time>2012-11-27T13:42:58Z</time>
      </trkpt>
      <trkpt lat="43.35764" lon="-0.33555">
        <ele>215.47</ele>
        <time>2012-11-27T13:43:06Z</time>
      </trkpt>
      <trkpt lat="43.35759" lon="-0.33543">
        <ele>215.47</ele>
        <time>2012-11-27T13:43:14Z</time>
      </trkpt>
      <trkpt lat="43.35753" lon="-0.33532">
        <ele>215.95</ele>
        <time>2012-11-27T13:43:22Z</time>
      </trkpt>
      <trkpt lat="43.35749" lon="-0.3352">
        <ele>215.47</ele>
        <time>2012-11-27T13:43:29Z</time>
      </trkpt>
      <trkpt lat="43.35744" lon="-0.3351">
        <ele>215.95</ele>
        <time>2012-11-27T13:43:36Z</time>
      </trkpt>
      <trkpt lat="43.35739" lon="-0.33501">
        <ele>215.47</ele>
        <time>2012-11-27T13:43:44Z</time>
      </trkpt>
      <trkpt lat="43.35738" lon="-0.33492">
        <ele>215.95</ele>
        <time>2012-11-27T13:44:08Z</time>
      </trkpt>
      <trkpt lat="43.35732" lon="-0.3348">
        <ele>215.95</ele>
        <time>2012-11-27T13:44:17Z</time>
      </trkpt>
      <trkpt lat="43.35728" lon="-0.33468">
        <ele>215.95</ele>
        <time>2012-11-27T13:44:25Z</time>
      </trkpt>
      <trkpt lat="43.35723" lon="-0.33456">
        <ele>215.95</ele>
        <time>2012-11-27T13:44:33Z</time>
      </trkpt>
      <trkpt lat="43.35717" lon="-0.33446">
        <ele>215.47</ele>
        <time>2012-11-27T13:44:41Z</time>
      </trkpt>
      <trkpt lat="43.35713" lon="-0.33437">
        <ele>215.95</ele>
        <time>2012-11-27T13:44:50Z</time>
      </trkpt>
      <trkpt lat="43.35706" lon="-0.33426">
        <ele>215.95</ele>
        <time>2012-11-27T13:44:58Z</time>
      </trkpt>
      <trkpt lat="43.357" lon="-0.33415">
        <ele>215.95</ele>
        <time>2012-11-27T13:45:07Z</time>
      </trkpt>
      <trkpt lat="43.35694" lon="-0.33405">
        <ele>215.95</ele>
        <time>2012-11-27T13:45:14Z</time>
      </trkpt>
      <trkpt lat="43.35687" lon="-0.33396">
        <ele>216.43</ele>
        <time>2012-11-27T13:45:22Z</time>
      </trkpt>
      <trkpt lat="43.3568" lon="-0.33386">
        <ele>216.43</ele>
        <time>2012-11-27T13:45:30Z</time>
      </trkpt>
      <trkpt lat="43.35674" lon="-0.33377">
        <ele>216.91</ele>
        <time>2012-11-27T13:45:37Z</time>
      </trkpt>
      <trkpt lat="43.35669" lon="-0.33368">
        <ele>216.43</ele>
        <time>2012-11-27T13:45:44Z</time>
      </trkpt>
      <trkpt lat="43.35663" lon="-0.33358">
        <ele>216.91</ele>
        <time>2012-11-27T13:45:51Z</time>
      </trkpt>
      <trkpt lat="43.35654" lon="-0.33349">
        <ele>216.91</ele>
        <time>2012-11-27T13:45:59Z</time>
      </trkpt>
      <trkpt lat="43.35648" lon="-0.33339">
        <ele>215.47</ele>
        <time>2012-11-27T13:46:06Z</time>
      </trkpt>
      <trkpt lat="43.35642" lon="-0.33331">
        <ele>216.91</ele>
        <time>2012-11-27T13:46:14Z</time>
      </trkpt>
      <trkpt lat="43.35635" lon="-0.33323">
        <ele>216.91</ele>
        <time>2012-11-27T13:46:21Z</time>
      </trkpt>
      <trkpt lat="43.35628" lon="-0.33314">
        <ele>217.88</ele>
        <time>2012-11-27T13:46:28Z</time>
      </trkpt>
      <trkpt lat="43.35621" lon="-0.33307">
        <ele>217.4</ele>
        <time>2012-11-27T13:46:35Z</time>
      </trkpt>
      <trkpt lat="43.35614" lon="-0.33297">
        <ele>217.4</ele>
        <time>2012-11-27T13:46:43Z</time>
      </trkpt>
      <trkpt lat="43.35608" lon="-0.33288">
        <ele>217.4</ele>
        <time>2012-11-27T13:46:52Z</time>
      </trkpt>
      <trkpt lat="43.35605" lon="-0.33276">
        <ele>217.4</ele>
        <time>2012-11-27T13:47:01Z</time>
      </trkpt>
      <trkpt lat="43.35604" lon="-0.33263">
        <ele>217.4</ele>
        <time>2012-11-27T13:47:10Z</time>
      </trkpt>
      <trkpt lat="43.35604" lon="-0.33251">
        <ele>217.88</ele>
        <time>2012-11-27T13:47:18Z</time>
      </trkpt>
      <trkpt lat="43.35606" lon="-0.33239">
        <ele>218.36</ele>
        <time>2012-11-27T13:47:26Z</time>
      </trkpt>
      <trkpt lat="43.35609" lon="-0.33227">
        <ele>217.88</ele>
        <time>2012-11-27T13:47:34Z</time>
      </trkpt>
      <trkpt lat="43.35611" lon="-0.33214">
        <ele>217.88</ele>
        <time>2012-11-27T13:47:42Z</time>
      </trkpt>
      <trkpt lat="43.35616" lon="-0.33202">
        <ele>218.36</ele>
        <time>2012-11-27T13:47:50Z</time>
      </trkpt>
      <trkpt lat="43.35621" lon="-0.3319">
        <ele>218.36</ele>
        <time>2012-11-27T13:47:58Z</time>
      </trkpt>
      <trkpt lat="43.35626" lon="-0.33179">
        <ele>218.84</ele>
        <time>2012-11-27T13:48:06Z</time>
      </trkpt>
      <trkpt lat="43.35632" lon="-0.33168">
        <ele>218.84</ele>
        <time>2012-11-27T13:48:14Z</time>
      </trkpt>
      <trkpt lat="43.35638" lon="-0.33158">
        <ele>219.32</ele>
        <time>2012-11-27T13:48:22Z</time>
      </trkpt>
      <trkpt lat="43.35645" lon="-0.33149">
        <ele>219.32</ele>
        <time>2012-11-27T13:48:30Z</time>
      </trkpt>
      <trkpt lat="43.35653" lon="-0.33139">
        <ele>219.32</ele>
        <time>2012-11-27T13:48:42Z</time>
      </trkpt>
      <trkpt lat="43.35658" lon="-0.33131">
        <ele>219.32</ele>
        <time>2012-11-27T13:49:05Z</time>
      </trkpt>
      <trkpt lat="43.35668" lon="-0.33126">
        <ele>219.8</ele>
        <time>2012-11-27T13:49:14Z</time>
      </trkpt>
      <trkpt lat="43.35677" lon="-0.3312">
        <ele>220.28</ele>
        <time>2012-11-27T13:49:22Z</time>
      </trkpt>
      <trkpt lat="43.35687" lon="-0.33113">
        <ele>220.76</ele>
        <time>2012-11-27T13:49:31Z</time>
      </trkpt>
      <trkpt lat="43.35694" lon="-0.33105">
        <ele>221.24</ele>
        <time>2012-11-27T13:49:39Z</time>
      </trkpt>
      <trkpt lat="43.35703" lon="-0.33096">
        <ele>221.24</ele>
        <time>2012-11-27T13:49:47Z</time>
      </trkpt>
      <trkpt lat="43.35711" lon="-0.33089">
        <ele>221.24</ele>
        <time>2012-11-27T13:49:55Z</time>
      </trkpt>
      <trkpt lat="43.35722" lon="-0.33085">
        <ele>222.68</ele>
        <time>2012-11-27T13:50:03Z</time>
      </trkpt>
      <trkpt lat="43.35732" lon="-0.3308">
        <ele>222.68</ele>
        <time>2012-11-27T13:50:11Z</time>
      </trkpt>
      <trkpt lat="43.35742" lon="-0.33074">
        <ele>223.16</ele>
        <time>2012-11-27T13:50:20Z</time>
      </trkpt>
      <trkpt lat="43.35754" lon="-0.33071">
        <ele>224.12</ele>
        <time>2012-11-27T13:50:28Z</time>
      </trkpt>
      <trkpt lat="43.35763" lon="-0.33066">
        <ele>224.12</ele>
        <time>2012-11-27T13:50:37Z</time>
      </trkpt>
      <trkpt lat="43.35774" lon="-0.33062">
        <ele>225.57</ele>
        <time>2012-11-27T13:50:46Z</time>
      </trkpt>
      <trkpt lat="43.35785" lon="-0.33056">
        <ele>226.53</ele>
        <time>2012-11-27T13:50:56Z</time>
      </trkpt>
      <trkpt lat="43.35795" lon="-0.33051">
        <ele>227.49</ele>
        <time>2012-11-27T13:51:05Z</time>
      </trkpt>
      <trkpt lat="43.35806" lon="-0.33043">
        <ele>227.97</ele>
        <time>2012-11-27T13:51:14Z</time>
      </trkpt>
      <trkpt lat="43.35814" lon="-0.33032">
        <ele>228.45</ele>
        <time>2012-11-27T13:51:23Z</time>
      </trkpt>
      <trkpt lat="43.35817" lon="-0.3302">
        <ele>229.89</ele>
        <time>2012-11-27T13:51:33Z</time>
      </trkpt>
      <trkpt lat="43.35823" lon="-0.33008">
        <ele>231.33</ele>
        <time>2012-11-27T13:51:43Z</time>
      </trkpt>
      <trkpt lat="43.35826" lon="-0.32992">
        <ele>232.3</ele>
        <time>2012-11-27T13:51:54Z</time>
      </trkpt>
      <trkpt lat="43.35827" lon="-0.32977">
        <ele>233.26</ele>
        <time>2012-11-27T13:52:04Z</time>
      </trkpt>
      <trkpt lat="43.3583" lon="-0.32964">
        <ele>234.7</ele>
        <time>2012-11-27T13:52:14Z</time>
      </trkpt>
      <trkpt lat="43.35832" lon="-0.32949">
        <ele>235.66</ele>
        <time>2012-11-27T13:52:26Z</time>
      </trkpt>
      <trkpt lat="43.35835" lon="-0.32933">
        <ele>237.1</ele>
        <time>2012-11-27T13:52:37Z</time>
      </trkpt>
      <trkpt lat="43.35839" lon="-0.3292">
        <ele>238.06</ele>
        <time>2012-11-27T13:52:48Z</time>
      </trkpt>
      <trkpt lat="43.35845" lon="-0.32906">
        <ele>239.99</ele>
        <time>2012-11-27T13:52:59Z</time>
      </trkpt>
      <trkpt lat="43.35852" lon="-0.32896">
        <ele>240.95</ele>
        <time>2012-11-27T13:53:09Z</time>
      </trkpt>
      <trkpt lat="43.35857" lon="-0.32884">
        <ele>242.87</ele>
        <time>2012-11-27T13:53:21Z</time>
      </trkpt>
      <trkpt lat="43.35864" lon="-0.32874">
        <ele>244.79</ele>
        <time>2012-11-27T13:53:34Z</time>
      </trkpt>
      <trkpt lat="43.35868" lon="-0.32861">
        <ele>246.72</ele>
        <time>2012-11-27T13:53:46Z</time>
      </trkpt>
      <trkpt lat="43.35873" lon="-0.3285">
        <ele>248.16</ele>
        <time>2012-11-27T13:53:57Z</time>
      </trkpt>
      <trkpt lat="43.3588" lon="-0.32838">
        <ele>250.56</ele>
        <time>2012-11-27T13:54:10Z</time>
      </trkpt>
      <trkpt lat="43.35881" lon="-0.32825">
        <ele>251.04</ele>
        <time>2012-11-27T13:54:22Z</time>
      </trkpt>
      <trkpt lat="43.35887" lon="-0.32817">
        <ele>252</ele>
        <time>2012-11-27T13:54:41Z</time>
      </trkpt>
      <trkpt lat="43.35893" lon="-0.32807">
        <ele>253.44</ele>
        <time>2012-11-27T13:54:50Z</time>
      </trkpt>
      <trkpt lat="43.35896" lon="-0.32797">
        <ele>254.89</ele>
        <time>2012-11-27T13:54:59Z</time>
      </trkpt>
      <trkpt lat="43.35901" lon="-0.32785">
        <ele>255.85</ele>
        <time>2012-11-27T13:55:09Z</time>
      </trkpt>
      <trkpt lat="43.35908" lon="-0.32774">
        <ele>256.81</ele>
        <time>2012-11-27T13:55:18Z</time>
      </trkpt>
      <trkpt lat="43.3592" lon="-0.32766">
        <ele>257.77</ele>
        <time>2012-11-27T13:55:29Z</time>
      </trkpt>
      <trkpt lat="43.35928" lon="-0.32754">
        <ele>259.21</ele>
        <time>2012-11-27T13:55:40Z</time>
      </trkpt>
      <trkpt lat="43.35934" lon="-0.32743">
        <ele>260.65</ele>
        <time>2012-11-27T13:55:50Z</time>
      </trkpt>
      <trkpt lat="43.3594" lon="-0.3273">
        <ele>262.58</ele>
        <time>2012-11-27T13:56:01Z</time>
      </trkpt>
      <trkpt lat="43.35945" lon="-0.3273">
        <ele>263.06</ele>
        <time>2012-11-27T13:56:12Z</time>
      </trkpt>
      <trkpt lat="43.35951" lon="-0.32721">
        <ele>262.1</ele>
        <time>2012-11-27T14:00:46Z</time>
      </trkpt>
      <trkpt lat="43.35957" lon="-0.32708">
        <ele>262.1</ele>
        <time>2012-11-27T14:00:56Z</time>
      </trkpt>
      <trkpt lat="43.3596" lon="-0.32695">
        <ele>261.62</ele>
        <time>2012-11-27T14:01:05Z</time>
      </trkpt>
      <trkpt lat="43.35966" lon="-0.32683">
        <ele>262.1</ele>
        <time>2012-11-27T14:01:14Z</time>
      </trkpt>
      <trkpt lat="43.35971" lon="-0.32671">
        <ele>261.62</ele>
        <time>2012-11-27T14:01:22Z</time>
      </trkpt>
      <trkpt lat="43.35974" lon="-0.32659">
        <ele>262.1</ele>
        <time>2012-11-27T14:01:30Z</time>
      </trkpt>
      <trkpt lat="43.35975" lon="-0.32644">
        <ele>262.58</ele>
        <time>2012-11-27T14:01:40Z</time>
      </trkpt>
      <trkpt lat="43.35977" lon="-0.32631">
        <ele>262.1</ele>
        <time>2012-11-27T14:01:48Z</time>
      </trkpt>
      <trkpt lat="43.35977" lon="-0.32619">
        <ele>262.58</ele>
        <time>2012-11-27T14:01:55Z</time>
      </trkpt>
      <trkpt lat="43.35976" lon="-0.32606">
        <ele>262.58</ele>
        <time>2012-11-27T14:02:03Z</time>
      </trkpt>
      <trkpt lat="43.35976" lon="-0.32592">
        <ele>263.06</ele>
        <time>2012-11-27T14:02:12Z</time>
      </trkpt>
      <trkpt lat="43.35974" lon="-0.3258">
        <ele>264.02</ele>
        <time>2012-11-27T14:02:22Z</time>
      </trkpt>
      <trkpt lat="43.35975" lon="-0.32566">
        <ele>265.46</ele>
        <time>2012-11-27T14:02:31Z</time>
      </trkpt>
      <trkpt lat="43.35976" lon="-0.32553">
        <ele>265.94</ele>
        <time>2012-11-27T14:02:38Z</time>
      </trkpt>
      <trkpt lat="43.35978" lon="-0.32541">
        <ele>266.9</ele>
        <time>2012-11-27T14:02:45Z</time>
      </trkpt>
      <trkpt lat="43.3598" lon="-0.32528">
        <ele>266.42</ele>
        <time>2012-11-27T14:02:53Z</time>
      </trkpt>
      <trkpt lat="43.35981" lon="-0.32516">
        <ele>267.38</ele>
        <time>2012-11-27T14:03:01Z</time>
      </trkpt>
      <trkpt lat="43.35985" lon="-0.32505">
        <ele>267.38</ele>
        <time>2012-11-27T14:03:09Z</time>
      </trkpt>
      <trkpt lat="43.3599" lon="-0.32495">
        <ele>267.86</ele>
        <time>2012-11-27T14:03:17Z</time>
      </trkpt>
      <trkpt lat="43.35995" lon="-0.32482">
        <ele>267.86</ele>
        <time>2012-11-27T14:03:25Z</time>
      </trkpt>
      <trkpt lat="43.35999" lon="-0.32471">
        <ele>268.35</ele>
        <time>2012-11-27T14:03:32Z</time>
      </trkpt>
      <trkpt lat="43.36002" lon="-0.32459">
        <ele>268.83</ele>
        <time>2012-11-27T14:03:40Z</time>
      </trkpt>
      <trkpt lat="43.36007" lon="-0.32448">
        <ele>270.27</ele>
        <time>2012-11-27T14:03:50Z</time>
      </trkpt>
      <trkpt lat="43.36009" lon="-0.32436">
        <ele>270.27</ele>
        <time>2012-11-27T14:03:59Z</time>
      </trkpt>
      <trkpt lat="43.36011" lon="-0.32422">
        <ele>271.23</ele>
        <time>2012-11-27T14:04:08Z</time>
      </trkpt>
      <trkpt lat="43.36015" lon="-0.32411">
        <ele>272.67</ele>
        <time>2012-11-27T14:04:18Z</time>
      </trkpt>
      <trkpt lat="43.36023" lon="-0.32403">
        <ele>272.19</ele>
        <time>2012-11-27T14:04:27Z</time>
      </trkpt>
      <trkpt lat="43.36033" lon="-0.324">
        <ele>271.71</ele>
        <time>2012-11-27T14:04:37Z</time>
      </trkpt>
      <trkpt lat="43.36042" lon="-0.32397">
        <ele>271.71</ele>
        <time>2012-11-27T14:04:47Z</time>
      </trkpt>
      <trkpt lat="43.36051" lon="-0.32392">
        <ele>271.23</ele>
        <time>2012-11-27T14:04:55Z</time>
      </trkpt>
      <trkpt lat="43.3606" lon="-0.3239">
        <ele>270.75</ele>
        <time>2012-11-27T14:05:03Z</time>
      </trkpt>
      <trkpt lat="43.3607" lon="-0.32386">
        <ele>271.23</ele>
        <time>2012-11-27T14:05:12Z</time>
      </trkpt>
      <trkpt lat="43.36079" lon="-0.32388">
        <ele>271.23</ele>
        <time>2012-11-27T14:05:21Z</time>
      </trkpt>
      <trkpt lat="43.3609" lon="-0.32387">
        <ele>269.79</ele>
        <time>2012-11-27T14:05:30Z</time>
      </trkpt>
      <trkpt lat="43.36099" lon="-0.32386">
        <ele>268.83</ele>
        <time>2012-11-27T14:05:40Z</time>
      </trkpt>
      <trkpt lat="43.36109" lon="-0.32383">
        <ele>267.86</ele>
        <time>2012-11-27T14:05:50Z</time>
      </trkpt>
      <trkpt lat="43.36117" lon="-0.32379">
        <ele>265.94</ele>
        <time>2012-11-27T14:06:00Z</time>
      </trkpt>
      <trkpt lat="43.36127" lon="-0.32374">
        <ele>264.5</ele>
        <time>2012-11-27T14:06:11Z</time>
      </trkpt>
      <trkpt lat="43.36137" lon="-0.32371">
        <ele>263.54</ele>
        <time>2012-11-27T14:06:20Z</time>
      </trkpt>
      <trkpt lat="43.36146" lon="-0.32367">
        <ele>262.1</ele>
        <time>2012-11-27T14:06:29Z</time>
      </trkpt>
      <trkpt lat="43.36156" lon="-0.32365">
        <ele>261.14</ele>
        <time>2012-11-27T14:06:38Z</time>
      </trkpt>
      <trkpt lat="43.36166" lon="-0.32362">
        <ele>260.17</ele>
        <time>2012-11-27T14:06:47Z</time>
      </trkpt>
      <trkpt lat="43.36177" lon="-0.32362">
        <ele>259.21</ele>
        <time>2012-11-27T14:06:57Z</time>
      </trkpt>
      <trkpt lat="43.36187" lon="-0.32363">
        <ele>258.73</ele>
        <time>2012-11-27T14:07:07Z</time>
      </trkpt>
      <trkpt lat="43.362" lon="-0.32371">
        <ele>258.25</ele>
        <time>2012-11-27T14:07:17Z</time>
      </trkpt>
      <trkpt lat="43.3621" lon="-0.32379">
        <ele>257.77</ele>
        <time>2012-11-27T14:07:25Z</time>
      </trkpt>
      <trkpt lat="43.3622" lon="-0.32383">
        <ele>257.29</ele>
        <time>2012-11-27T14:07:33Z</time>
      </trkpt>
      <trkpt lat="43.3623" lon="-0.32389">
        <ele>257.29</ele>
        <time>2012-11-27T14:07:42Z</time>
      </trkpt>
      <trkpt lat="43.36238" lon="-0.32398">
        <ele>257.29</ele>
        <time>2012-11-27T14:07:51Z</time>
      </trkpt>
      <trkpt lat="43.36245" lon="-0.32408">
        <ele>258.73</ele>
        <time>2012-11-27T14:08:01Z</time>
      </trkpt>
      <trkpt lat="43.36252" lon="-0.32416">
        <ele>259.21</ele>
        <time>2012-11-27T14:08:11Z</time>
      </trkpt>
      <trkpt lat="43.36259" lon="-0.32426">
        <ele>262.1</ele>
        <time>2012-11-27T14:08:22Z</time>
      </trkpt>
      <trkpt lat="43.36263" lon="-0.32438">
        <ele>263.06</ele>
        <time>2012-11-27T14:08:32Z</time>
      </trkpt>
      <trkpt lat="43.36269" lon="-0.32448">
        <ele>263.54</ele>
        <time>2012-11-27T14:08:41Z</time>
      </trkpt>
      <trkpt lat="43.36276" lon="-0.32458">
        <ele>264.98</ele>
        <time>2012-11-27T14:08:51Z</time>
      </trkpt>
      <trkpt lat="43.36282" lon="-0.32467">
        <ele>266.42</ele>
        <time>2012-11-27T14:09:00Z</time>
      </trkpt>
      <trkpt lat="43.36287" lon="-0.3247">
        <ele>265.94</ele>
        <time>2012-11-27T14:15:12Z</time>
      </trkpt>
      <trkpt lat="43.36289" lon="-0.32483">
        <ele>265.94</ele>
        <time>2012-11-27T14:15:22Z</time>
      </trkpt>
      <trkpt lat="43.36288" lon="-0.32496">
        <ele>265.46</ele>
        <time>2012-11-27T14:15:32Z</time>
      </trkpt>
      <trkpt lat="43.36287" lon="-0.32509">
        <ele>263.54</ele>
        <time>2012-11-27T14:15:39Z</time>
      </trkpt>
      <trkpt lat="43.36284" lon="-0.32521">
        <ele>262.1</ele>
        <time>2012-11-27T14:15:46Z</time>
      </trkpt>
      <trkpt lat="43.36283" lon="-0.32532">
        <ele>262.58</ele>
        <time>2012-11-27T14:15:53Z</time>
      </trkpt>
      <trkpt lat="43.3628" lon="-0.32545">
        <ele>261.14</ele>
        <time>2012-11-27T14:16:00Z</time>
      </trkpt>
      <trkpt lat="43.36277" lon="-0.32558">
        <ele>260.17</ele>
        <time>2012-11-27T14:16:07Z</time>
      </trkpt>
      <trkpt lat="43.36275" lon="-0.32571">
        <ele>259.69</ele>
        <time>2012-11-27T14:16:15Z</time>
      </trkpt>
      <trkpt lat="43.36273" lon="-0.32584">
        <ele>258.25</ele>
        <time>2012-11-27T14:16:22Z</time>
      </trkpt>
      <trkpt lat="43.36272" lon="-0.32596">
        <ele>257.77</ele>
        <time>2012-11-27T14:16:29Z</time>
      </trkpt>
      <trkpt lat="43.3627" lon="-0.32609">
        <ele>257.77</ele>
        <time>2012-11-27T14:16:36Z</time>
      </trkpt>
      <trkpt lat="43.36268" lon="-0.32621">
        <ele>256.81</ele>
        <time>2012-11-27T14:16:43Z</time>
      </trkpt>
      <trkpt lat="43.36266" lon="-0.32634">
        <ele>255.85</ele>
        <time>2012-11-27T14:16:50Z</time>
      </trkpt>
      <trkpt lat="43.36264" lon="-0.32645">
        <ele>254.41</ele>
        <time>2012-11-27T14:17:07Z</time>
      </trkpt>
      <trkpt lat="43.36262" lon="-0.32659">
        <ele>255.37</ele>
        <time>2012-11-27T14:17:16Z</time>
      </trkpt>
      <trkpt lat="43.36261" lon="-0.32673">
        <ele>253.93</ele>
        <time>2012-11-27T14:17:24Z</time>
      </trkpt>
      <trkpt lat="43.36258" lon="-0.32686">
        <ele>254.89</ele>
        <time>2012-11-27T14:17:31Z</time>
      </trkpt>
      <trkpt lat="43.36255" lon="-0.32699">
        <ele>253.93</ele>
        <time>2012-11-27T14:17:39Z</time>
      </trkpt>
      <trkpt lat="43.36252" lon="-0.32711">
        <ele>252.96</ele>
        <time>2012-11-27T14:17:46Z</time>
      </trkpt>
      <trkpt lat="43.36249" lon="-0.32723">
        <ele>252.48</ele>
        <time>2012-11-27T14:17:53Z</time>
      </trkpt>
      <trkpt lat="43.36246" lon="-0.32736">
        <ele>252</ele>
        <time>2012-11-27T14:18:01Z</time>
      </trkpt>
      <trkpt lat="43.36244" lon="-0.32748">
        <ele>250.56</ele>
        <time>2012-11-27T14:18:08Z</time>
      </trkpt>
      <trkpt lat="43.36242" lon="-0.32762">
        <ele>250.56</ele>
        <time>2012-11-27T14:18:16Z</time>
      </trkpt>
      <trkpt lat="43.3624" lon="-0.32775">
        <ele>250.08</ele>
        <time>2012-11-27T14:18:24Z</time>
      </trkpt>
      <trkpt lat="43.36238" lon="-0.32788">
        <ele>248.16</ele>
        <time>2012-11-27T14:18:32Z</time>
      </trkpt>
      <trkpt lat="43.36236" lon="-0.32801">
        <ele>247.2</ele>
        <time>2012-11-27T14:18:39Z</time>
      </trkpt>
      <trkpt lat="43.36234" lon="-0.32814">
        <ele>246.23</ele>
        <time>2012-11-27T14:18:47Z</time>
      </trkpt>
      <trkpt lat="43.36231" lon="-0.32827">
        <ele>245.75</ele>
        <time>2012-11-27T14:18:55Z</time>
      </trkpt>
      <trkpt lat="43.36229" lon="-0.3284">
        <ele>245.75</ele>
        <time>2012-11-27T14:19:03Z</time>
      </trkpt>
      <trkpt lat="43.3623" lon="-0.32855">
        <ele>244.31</ele>
        <time>2012-11-27T14:19:11Z</time>
      </trkpt>
      <trkpt lat="43.36231" lon="-0.32869">
        <ele>243.83</ele>
        <time>2012-11-27T14:19:19Z</time>
      </trkpt>
      <trkpt lat="43.36233" lon="-0.32883">
        <ele>243.35</ele>
        <time>2012-11-27T14:19:27Z</time>
      </trkpt>
      <trkpt lat="43.36235" lon="-0.32897">
        <ele>241.91</ele>
        <time>2012-11-27T14:19:35Z</time>
      </trkpt>
      <trkpt lat="43.36237" lon="-0.32911">
        <ele>241.91</ele>
        <time>2012-11-27T14:19:43Z</time>
      </trkpt>
      <trkpt lat="43.3624" lon="-0.32923">
        <ele>240.95</ele>
        <time>2012-11-27T14:19:51Z</time>
      </trkpt>
      <trkpt lat="43.36242" lon="-0.32935">
        <ele>240.47</ele>
        <time>2012-11-27T14:19:59Z</time>
      </trkpt>
      <trkpt lat="43.36243" lon="-0.32948">
        <ele>240.47</ele>
        <time>2012-11-27T14:20:07Z</time>
      </trkpt>
      <trkpt lat="43.36245" lon="-0.32961">
        <ele>239.99</ele>
        <time>2012-11-27T14:20:15Z</time>
      </trkpt>
      <trkpt lat="43.36247" lon="-0.32974">
        <ele>239.51</ele>
        <time>2012-11-27T14:20:24Z</time>
      </trkpt>
      <trkpt lat="43.36249" lon="-0.32987">
        <ele>238.54</ele>
        <time>2012-11-27T14:20:32Z</time>
      </trkpt>
      <trkpt lat="43.3625" lon="-0.33">
        <ele>238.06</ele>
        <time>2012-11-27T14:20:40Z</time>
      </trkpt>
      <trkpt lat="43.36253" lon="-0.33011">
        <ele>237.58</ele>
        <time>2012-11-27T14:20:48Z</time>
      </trkpt>
      <trkpt lat="43.36255" lon="-0.33023">
        <ele>236.62</ele>
        <time>2012-11-27T14:20:56Z</time>
      </trkpt>
      <trkpt lat="43.36258" lon="-0.33036">
        <ele>236.14</ele>
        <time>2012-11-27T14:21:04Z</time>
      </trkpt>
      <trkpt lat="43.36261" lon="-0.33048">
        <ele>236.14</ele>
        <time>2012-11-27T14:21:12Z</time>
      </trkpt>
      <trkpt lat="43.36265" lon="-0.33059">
        <ele>234.22</ele>
        <time>2012-11-27T14:21:20Z</time>
      </trkpt>
      <trkpt lat="43.3627" lon="-0.3307">
        <ele>234.22</ele>
        <time>2012-11-27T14:21:29Z</time>
      </trkpt>
      <trkpt lat="43.36276" lon="-0.33081">
        <ele>234.22</ele>
        <time>2012-11-27T14:21:38Z</time>
      </trkpt>
      <trkpt lat="43.36283" lon="-0.33091">
        <ele>233.26</ele>
        <time>2012-11-27T14:21:47Z</time>
      </trkpt>
      <trkpt lat="43.36291" lon="-0.33097">
        <ele>232.78</ele>
        <time>2012-11-27T14:21:55Z</time>
      </trkpt>
      <trkpt lat="43.363" lon="-0.33104">
        <ele>232.78</ele>
        <time>2012-11-27T14:22:04Z</time>
      </trkpt>
      <trkpt lat="43.36308" lon="-0.33109">
        <ele>232.3</ele>
        <time>2012-11-27T14:22:13Z</time>
      </trkpt>
      <trkpt lat="43.36316" lon="-0.33114">
        <ele>231.33</ele>
        <time>2012-11-27T14:22:21Z</time>
      </trkpt>
      <trkpt lat="43.36326" lon="-0.3312">
        <ele>230.85</ele>
        <time>2012-11-27T14:22:30Z</time>
      </trkpt>
      <trkpt lat="43.36335" lon="-0.33125">
        <ele>229.89</ele>
        <time>2012-11-27T14:22:39Z</time>
      </trkpt>
      <trkpt lat="43.36344" lon="-0.33131">
        <ele>229.41</ele>
        <time>2012-11-27T14:22:48Z</time>
      </trkpt>
      <trkpt lat="43.36353" lon="-0.33136">
        <ele>227.97</ele>
        <time>2012-11-27T14:22:57Z</time>
      </trkpt>
      <trkpt lat="43.36363" lon="-0.33139">
        <ele>227.01</ele>
        <time>2012-11-27T14:23:05Z</time>
      </trkpt>
      <trkpt lat="43.36371" lon="-0.33144">
        <ele>226.05</ele>
        <time>2012-11-27T14:23:14Z</time>
      </trkpt>
      <trkpt lat="43.36381" lon="-0.33151">
        <ele>224.12</ele>
        <time>2012-11-27T14:23:25Z</time>
      </trkpt>
      <trkpt lat="43.36392" lon="-0.33156">
        <ele>223.64</ele>
        <time>2012-11-27T14:23:36Z</time>
      </trkpt>
      <trkpt lat="43.36406" lon="-0.33162">
        <ele>222.2</ele>
        <time>2012-11-27T14:23:47Z</time>
      </trkpt>
      <trkpt lat="43.36418" lon="-0.33168">
        <ele>220.76</ele>
        <time>2012-11-27T14:23:58Z</time>
      </trkpt>
      <trkpt lat="43.36431" lon="-0.33177">
        <ele>220.28</ele>
        <time>2012-11-27T14:24:10Z</time>
      </trkpt>
      <trkpt lat="43.36442" lon="-0.33183">
        <ele>219.8</ele>
        <time>2012-11-27T14:24:20Z</time>
      </trkpt>
      <trkpt lat="43.36453" lon="-0.33188">
        <ele>218.84</ele>
        <time>2012-11-27T14:24:29Z</time>
      </trkpt>
      <trkpt lat="43.36462" lon="-0.33194">
        <ele>218.36</ele>
        <time>2012-11-27T14:24:37Z</time>
      </trkpt>
      <trkpt lat="43.3647" lon="-0.33199">
        <ele>217.4</ele>
        <time>2012-11-27T14:24:46Z</time>
      </trkpt>
      <trkpt lat="43.36479" lon="-0.33204">
        <ele>215.95</ele>
        <time>2012-11-27T14:24:54Z</time>
      </trkpt>
      <trkpt lat="43.36488" lon="-0.33207">
        <ele>215.47</ele>
        <time>2012-11-27T14:25:02Z</time>
      </trkpt>
      <trkpt lat="43.36496" lon="-0.3321">
        <ele>214.51</ele>
        <time>2012-11-27T14:25:10Z</time>
      </trkpt>
      <trkpt lat="43.36505" lon="-0.33215">
        <ele>214.03</ele>
        <time>2012-11-27T14:25:18Z</time>
      </trkpt>
      <trkpt lat="43.36514" lon="-0.3322">
        <ele>213.55</ele>
        <time>2012-11-27T14:25:27Z</time>
      </trkpt>
      <trkpt lat="43.36524" lon="-0.33226">
        <ele>212.59</ele>
        <time>2012-11-27T14:25:37Z</time>
      </trkpt>
      <trkpt lat="43.36533" lon="-0.3323">
        <ele>211.15</ele>
        <time>2012-11-27T14:25:46Z</time>
      </trkpt>
      <trkpt lat="43.36541" lon="-0.33236">
        <ele>210.67</ele>
        <time>2012-11-27T14:25:54Z</time>
      </trkpt>
      <trkpt lat="43.36549" lon="-0.33241">
        <ele>210.19</ele>
        <time>2012-11-27T14:26:02Z</time>
      </trkpt>
      <trkpt lat="43.3656" lon="-0.3324">
        <ele>209.7</ele>
        <time>2012-11-27T14:26:11Z</time>
      </trkpt>
      <trkpt lat="43.36569" lon="-0.33234">
        <ele>208.74</ele>
        <time>2012-11-27T14:26:20Z</time>
      </trkpt>
      <trkpt lat="43.36578" lon="-0.33226">
        <ele>208.26</ele>
        <time>2012-11-27T14:26:29Z</time>
      </trkpt>
      <trkpt lat="43.36586" lon="-0.33219">
        <ele>207.78</ele>
        <time>2012-11-27T14:26:37Z</time>
      </trkpt>
      <trkpt lat="43.36594" lon="-0.33214">
        <ele>207.78</ele>
        <time>2012-11-27T14:26:45Z</time>
      </trkpt>
      <trkpt lat="43.36602" lon="-0.33207">
        <ele>207.3</ele>
        <time>2012-11-27T14:26:54Z</time>
      </trkpt>
      <trkpt lat="43.3661" lon="-0.33199">
        <ele>207.3</ele>
        <time>2012-11-27T14:27:03Z</time>
      </trkpt>
      <trkpt lat="43.36615" lon="-0.33187">
        <ele>207.3</ele>
        <time>2012-11-27T14:27:12Z</time>
      </trkpt>
      <trkpt lat="43.3662" lon="-0.33176">
        <ele>207.3</ele>
        <time>2012-11-27T14:27:20Z</time>
      </trkpt>
      <trkpt lat="43.36626" lon="-0.33164">
        <ele>207.78</ele>
        <time>2012-11-27T14:27:29Z</time>
      </trkpt>
      <trkpt lat="43.36632" lon="-0.33155">
        <ele>207.3</ele>
        <time>2012-11-27T14:27:38Z</time>
      </trkpt>
      <trkpt lat="43.36638" lon="-0.33145">
        <ele>207.78</ele>
        <time>2012-11-27T14:27:47Z</time>
      </trkpt>
      <trkpt lat="43.36643" lon="-0.33135">
        <ele>207.78</ele>
        <time>2012-11-27T14:27:55Z</time>
      </trkpt>
      <trkpt lat="43.36649" lon="-0.33124">
        <ele>207.78</ele>
        <time>2012-11-27T14:28:03Z</time>
      </trkpt>
      <trkpt lat="43.36652" lon="-0.33111">
        <ele>207.78</ele>
        <time>2012-11-27T14:28:12Z</time>
      </trkpt>
      <trkpt lat="43.36655" lon="-0.33098">
        <ele>207.78</ele>
        <time>2012-11-27T14:28:20Z</time>
      </trkpt>
      <trkpt lat="43.36656" lon="-0.33085">
        <ele>207.78</ele>
        <time>2012-11-27T14:28:28Z</time>
      </trkpt>
      <trkpt lat="43.36657" lon="-0.33073">
        <ele>208.26</ele>
        <time>2012-11-27T14:28:36Z</time>
      </trkpt>
      <trkpt lat="43.36658" lon="-0.3306">
        <ele>207.78</ele>
        <time>2012-11-27T14:28:45Z</time>
      </trkpt>
      <trkpt lat="43.3666" lon="-0.33048">
        <ele>207.78</ele>
        <time>2012-11-27T14:28:53Z</time>
      </trkpt>
      <trkpt lat="43.36661" lon="-0.33036">
        <ele>208.26</ele>
        <time>2012-11-27T14:29:01Z</time>
      </trkpt>
      <trkpt lat="43.36661" lon="-0.33023">
        <ele>207.78</ele>
        <time>2012-11-27T14:29:10Z</time>
      </trkpt>
      <trkpt lat="43.36662" lon="-0.3301">
        <ele>208.26</ele>
        <time>2012-11-27T14:29:18Z</time>
      </trkpt>
      <trkpt lat="43.36663" lon="-0.32998">
        <ele>208.74</ele>
        <time>2012-11-27T14:29:26Z</time>
      </trkpt>
      <trkpt lat="43.36665" lon="-0.32986">
        <ele>208.74</ele>
        <time>2012-11-27T14:29:34Z</time>
      </trkpt>
      <trkpt lat="43.36666" lon="-0.32973">
        <ele>209.22</ele>
        <time>2012-11-27T14:29:43Z</time>
      </trkpt>
      <trkpt lat="43.36667" lon="-0.32961">
        <ele>209.22</ele>
        <time>2012-11-27T14:29:52Z</time>
      </trkpt>
      <trkpt lat="43.36669" lon="-0.32947">
        <ele>209.22</ele>
        <time>2012-11-27T14:30:01Z</time>
      </trkpt>
      <trkpt lat="43.36671" lon="-0.32934">
        <ele>208.74</ele>
        <time>2012-11-27T14:30:10Z</time>
      </trkpt>
      <trkpt lat="43.36672" lon="-0.32922">
        <ele>209.22</ele>
        <time>2012-11-27T14:30:19Z</time>
      </trkpt>
      <trkpt lat="43.36673" lon="-0.32908">
        <ele>209.7</ele>
        <time>2012-11-27T14:30:28Z</time>
      </trkpt>
      <trkpt lat="43.36676" lon="-0.32897">
        <ele>209.7</ele>
        <time>2012-11-27T14:30:37Z</time>
      </trkpt>
      <trkpt lat="43.36677" lon="-0.32884">
        <ele>210.19</ele>
        <time>2012-11-27T14:30:46Z</time>
      </trkpt>
      <trkpt lat="43.36678" lon="-0.32872">
        <ele>211.15</ele>
        <time>2012-11-27T14:30:55Z</time>
      </trkpt>
      <trkpt lat="43.36681" lon="-0.32859">
        <ele>211.63</ele>
        <time>2012-11-27T14:31:04Z</time>
      </trkpt>
      <trkpt lat="43.36682" lon="-0.32846">
        <ele>212.11</ele>
        <time>2012-11-27T14:31:13Z</time>
      </trkpt>
      <trkpt lat="43.36683" lon="-0.32833">
        <ele>212.11</ele>
        <time>2012-11-27T14:31:22Z</time>
      </trkpt>
      <trkpt lat="43.36684" lon="-0.32821">
        <ele>212.59</ele>
        <time>2012-11-27T14:31:30Z</time>
      </trkpt>
      <trkpt lat="43.36687" lon="-0.32807">
        <ele>212.59</ele>
        <time>2012-11-27T14:31:39Z</time>
      </trkpt>
      <trkpt lat="43.36689" lon="-0.32795">
        <ele>213.07</ele>
        <time>2012-11-27T14:31:48Z</time>
      </trkpt>
      <trkpt lat="43.36691" lon="-0.32781">
        <ele>214.51</ele>
        <time>2012-11-27T14:31:58Z</time>
      </trkpt>
      <trkpt lat="43.36693" lon="-0.32767">
        <ele>214.51</ele>
        <time>2012-11-27T14:32:07Z</time>
      </trkpt>
      <trkpt lat="43.36693" lon="-0.32754">
        <ele>214.99</ele>
        <time>2012-11-27T14:32:17Z</time>
      </trkpt>
      <trkpt lat="43.36696" lon="-0.32741">
        <ele>214.03</ele>
        <time>2012-11-27T14:32:27Z</time>
      </trkpt>
      <trkpt lat="43.36699" lon="-0.32726">
        <ele>214.51</ele>
        <time>2012-11-27T14:32:37Z</time>
      </trkpt>
      <trkpt lat="43.367" lon="-0.32712">
        <ele>213.55</ele>
        <time>2012-11-27T14:32:46Z</time>
      </trkpt>
      <trkpt lat="43.36704" lon="-0.32705">
        <ele>213.07</ele>
        <time>2012-11-27T14:34:43Z</time>
      </trkpt>
      <trkpt lat="43.36712" lon="-0.32705">
        <ele>213.07</ele>
        <time>2012-11-27T14:34:54Z</time>
      </trkpt>
      <trkpt lat="43.36721" lon="-0.32704">
        <ele>212.59</ele>
        <time>2012-11-27T14:35:03Z</time>
      </trkpt>
      <trkpt lat="43.36731" lon="-0.32705">
        <ele>211.63</ele>
        <time>2012-11-27T14:35:12Z</time>
      </trkpt>
      <trkpt lat="43.36742" lon="-0.32705">
        <ele>211.15</ele>
        <time>2012-11-27T14:35:21Z</time>
      </trkpt>
      <trkpt lat="43.36752" lon="-0.32704">
        <ele>211.63</ele>
        <time>2012-11-27T14:35:30Z</time>
      </trkpt>
      <trkpt lat="43.36761" lon="-0.32703">
        <ele>211.63</ele>
        <time>2012-11-27T14:35:39Z</time>
      </trkpt>
      <trkpt lat="43.36771" lon="-0.32701">
        <ele>212.11</ele>
        <time>2012-11-27T14:35:48Z</time>
      </trkpt>
      <trkpt lat="43.36781" lon="-0.32701">
        <ele>212.11</ele>
        <time>2012-11-27T14:35:57Z</time>
      </trkpt>
      <trkpt lat="43.36792" lon="-0.32703">
        <ele>212.11</ele>
        <time>2012-11-27T14:36:07Z</time>
      </trkpt>
      <trkpt lat="43.36802" lon="-0.32705">
        <ele>212.11</ele>
        <time>2012-11-27T14:36:16Z</time>
      </trkpt>
      <trkpt lat="43.36812" lon="-0.32703">
        <ele>211.15</ele>
        <time>2012-11-27T14:36:24Z</time>
      </trkpt>
      <trkpt lat="43.36822" lon="-0.32701">
        <ele>211.15</ele>
        <time>2012-11-27T14:36:34Z</time>
      </trkpt>
      <trkpt lat="43.36833" lon="-0.32706">
        <ele>211.15</ele>
        <time>2012-11-27T14:36:47Z</time>
      </trkpt>
      <trkpt lat="43.36844" lon="-0.32708">
        <ele>211.63</ele>
        <time>2012-11-27T14:37:09Z</time>
      </trkpt>
      <trkpt lat="43.36855" lon="-0.32705">
        <ele>210.67</ele>
        <time>2012-11-27T14:37:19Z</time>
      </trkpt>
      <trkpt lat="43.36861" lon="-0.32693">
        <ele>211.15</ele>
        <time>2012-11-27T14:37:29Z</time>
      </trkpt>
      <trkpt lat="43.36863" lon="-0.32681">
        <ele>211.63</ele>
        <time>2012-11-27T14:37:38Z</time>
      </trkpt>
      <trkpt lat="43.36866" lon="-0.32669">
        <ele>212.11</ele>
        <time>2012-11-27T14:37:48Z</time>
      </trkpt>
      <trkpt lat="43.36869" lon="-0.32656">
        <ele>212.11</ele>
        <time>2012-11-27T14:37:59Z</time>
      </trkpt>
      <trkpt lat="43.36871" lon="-0.32644">
        <ele>212.11</ele>
        <time>2012-11-27T14:38:09Z</time>
      </trkpt>
      <trkpt lat="43.36875" lon="-0.32631">
        <ele>211.63</ele>
        <time>2012-11-27T14:38:19Z</time>
      </trkpt>
      <trkpt lat="43.36878" lon="-0.32618">
        <ele>212.11</ele>
        <time>2012-11-27T14:38:28Z</time>
      </trkpt>
      <trkpt lat="43.36883" lon="-0.32607">
        <ele>212.11</ele>
        <time>2012-11-27T14:38:37Z</time>
      </trkpt>
      <trkpt lat="43.36887" lon="-0.32596">
        <ele>212.11</ele>
        <time>2012-11-27T14:38:46Z</time>
      </trkpt>
      <trkpt lat="43.36893" lon="-0.32587">
        <ele>212.11</ele>
        <time>2012-11-27T14:38:57Z</time>
      </trkpt>
      <trkpt lat="43.369" lon="-0.3258">
        <ele>211.63</ele>
        <time>2012-11-27T14:39:13Z</time>
      </trkpt>
      <trkpt lat="43.36909" lon="-0.32575">
        <ele>210.67</ele>
        <time>2012-11-27T14:39:22Z</time>
      </trkpt>
      <trkpt lat="43.3692" lon="-0.32573">
        <ele>211.15</ele>
        <time>2012-11-27T14:39:30Z</time>
      </trkpt>
      <trkpt lat="43.36929" lon="-0.3257">
        <ele>212.11</ele>
        <time>2012-11-27T14:39:38Z</time>
      </trkpt>
      <trkpt lat="43.36939" lon="-0.32569">
        <ele>212.11</ele>
        <time>2012-11-27T14:39:47Z</time>
      </trkpt>
      <trkpt lat="43.36949" lon="-0.32566">
        <ele>212.11</ele>
        <time>2012-11-27T14:39:56Z</time>
      </trkpt>
      <trkpt lat="43.36958" lon="-0.32561">
        <ele>213.07</ele>
        <time>2012-11-27T14:40:07Z</time>
      </trkpt>
      <trkpt lat="43.36968" lon="-0.3256">
        <ele>213.07</ele>
        <time>2012-11-27T14:40:17Z</time>
      </trkpt>
      <trkpt lat="43.36978" lon="-0.32557">
        <ele>213.55</ele>
        <time>2012-11-27T14:40:26Z</time>
      </trkpt>
      <trkpt lat="43.36988" lon="-0.32555">
        <ele>212.59</ele>
        <time>2012-11-27T14:40:35Z</time>
      </trkpt>
      <trkpt lat="43.36998" lon="-0.32553">
        <ele>212.59</ele>
        <time>2012-11-27T14:40:43Z</time>
      </trkpt>
      <trkpt lat="43.37007" lon="-0.32551">
        <ele>212.59</ele>
        <time>2012-11-27T14:40:51Z</time>
      </trkpt>
      <trkpt lat="43.37016" lon="-0.3255">
        <ele>213.55</ele>
        <time>2012-11-27T14:40:59Z</time>
      </trkpt>
      <trkpt lat="43.37026" lon="-0.3255">
        <ele>213.55</ele>
        <time>2012-11-27T14:41:08Z</time>
      </trkpt>
      <trkpt lat="43.37035" lon="-0.32549">
        <ele>213.07</ele>
        <time>2012-11-27T14:41:17Z</time>
      </trkpt>
      <trkpt lat="43.37044" lon="-0.32547">
        <ele>213.55</ele>
        <time>2012-11-27T14:41:25Z</time>
      </trkpt>
      <trkpt lat="43.37053" lon="-0.32544">
        <ele>213.55</ele>
        <time>2012-11-27T14:41:33Z</time>
      </trkpt>
      <trkpt lat="43.37063" lon="-0.32542">
        <ele>213.55</ele>
        <time>2012-11-27T14:41:42Z</time>
      </trkpt>
      <trkpt lat="43.37072" lon="-0.3254">
        <ele>214.03</ele>
        <time>2012-11-27T14:41:51Z</time>
      </trkpt>
      <trkpt lat="43.37083" lon="-0.32539">
        <ele>213.55</ele>
        <time>2012-11-27T14:42:00Z</time>
      </trkpt>
      <trkpt lat="43.37094" lon="-0.32538">
        <ele>214.51</ele>
        <time>2012-11-27T14:42:09Z</time>
      </trkpt>
      <trkpt lat="43.37104" lon="-0.32538">
        <ele>214.51</ele>
        <time>2012-11-27T14:42:18Z</time>
      </trkpt>
      <trkpt lat="43.37111" lon="-0.32542">
        <ele>214.99</ele>
        <time>2012-11-27T14:42:48Z</time>
      </trkpt>
      <trkpt lat="43.37112" lon="-0.32553">
        <ele>214.99</ele>
        <time>2012-11-27T14:43:05Z</time>
      </trkpt>
      <trkpt lat="43.37108" lon="-0.32565">
        <ele>215.47</ele>
        <time>2012-11-27T14:43:15Z</time>
      </trkpt>
      <trkpt lat="43.37103" lon="-0.32577">
        <ele>215.47</ele>
        <time>2012-11-27T14:43:23Z</time>
      </trkpt>
      <trkpt lat="43.37099" lon="-0.32589">
        <ele>215.95</ele>
        <time>2012-11-27T14:43:32Z</time>
      </trkpt>
      <trkpt lat="43.37094" lon="-0.32601">
        <ele>215.47</ele>
        <time>2012-11-27T14:43:41Z</time>
      </trkpt>
      <trkpt lat="43.37089" lon="-0.32613">
        <ele>214.99</ele>
        <time>2012-11-27T14:43:49Z</time>
      </trkpt>
      <trkpt lat="43.37085" lon="-0.32625">
        <ele>215.47</ele>
        <time>2012-11-27T14:43:56Z</time>
      </trkpt>
      <trkpt lat="43.3708" lon="-0.32636">
        <ele>214.99</ele>
        <time>2012-11-27T14:44:03Z</time>
      </trkpt>
      <trkpt lat="43.37076" lon="-0.32649">
        <ele>214.51</ele>
        <time>2012-11-27T14:44:11Z</time>
      </trkpt>
      <trkpt lat="43.37071" lon="-0.3266">
        <ele>214.51</ele>
        <time>2012-11-27T14:44:19Z</time>
      </trkpt>
      <trkpt lat="43.37067" lon="-0.32672">
        <ele>214.99</ele>
        <time>2012-11-27T14:44:27Z</time>
      </trkpt>
      <trkpt lat="43.37062" lon="-0.32684">
        <ele>214.51</ele>
        <time>2012-11-27T14:44:35Z</time>
      </trkpt>
      <trkpt lat="43.37059" lon="-0.32697">
        <ele>214.99</ele>
        <time>2012-11-27T14:44:44Z</time>
      </trkpt>
      <trkpt lat="43.37055" lon="-0.32709">
        <ele>214.03</ele>
        <time>2012-11-27T14:44:51Z</time>
      </trkpt>
      <trkpt lat="43.37052" lon="-0.32722">
        <ele>214.51</ele>
        <time>2012-11-27T14:44:59Z</time>
      </trkpt>
      <trkpt lat="43.3705" lon="-0.32735">
        <ele>214.51</ele>
        <time>2012-11-27T14:45:07Z</time>
      </trkpt>
      <trkpt lat="43.37049" lon="-0.32749">
        <ele>214.51</ele>
        <time>2012-11-27T14:45:15Z</time>
      </trkpt>
      <trkpt lat="43.37049" lon="-0.32763">
        <ele>214.03</ele>
        <time>2012-11-27T14:45:23Z</time>
      </trkpt>
      <trkpt lat="43.37046" lon="-0.32775">
        <ele>213.07</ele>
        <time>2012-11-27T14:45:31Z</time>
      </trkpt>
      <trkpt lat="43.37046" lon="-0.32789">
        <ele>213.55</ele>
        <time>2012-11-27T14:45:39Z</time>
      </trkpt>
      <trkpt lat="43.37045" lon="-0.32803">
        <ele>213.55</ele>
        <time>2012-11-27T14:45:48Z</time>
      </trkpt>
      <trkpt lat="43.37045" lon="-0.32816">
        <ele>214.03</ele>
        <time>2012-11-27T14:45:56Z</time>
      </trkpt>
      <trkpt lat="43.37044" lon="-0.3283">
        <ele>214.03</ele>
        <time>2012-11-27T14:46:04Z</time>
      </trkpt>
      <trkpt lat="43.37043" lon="-0.32843">
        <ele>213.55</ele>
        <time>2012-11-27T14:46:12Z</time>
      </trkpt>
      <trkpt lat="43.37041" lon="-0.32856">
        <ele>214.03</ele>
        <time>2012-11-27T14:46:20Z</time>
      </trkpt>
      <trkpt lat="43.3704" lon="-0.32869">
        <ele>213.07</ele>
        <time>2012-11-27T14:46:28Z</time>
      </trkpt>
      <trkpt lat="43.37038" lon="-0.32881">
        <ele>213.55</ele>
        <time>2012-11-27T14:46:35Z</time>
      </trkpt>
      <trkpt lat="43.37033" lon="-0.32892">
        <ele>212.59</ele>
        <time>2012-11-27T14:46:43Z</time>
      </trkpt>
      <trkpt lat="43.37026" lon="-0.32902">
        <ele>212.59</ele>
        <time>2012-11-27T14:46:51Z</time>
      </trkpt>
      <trkpt lat="43.37019" lon="-0.32912">
        <ele>212.11</ele>
        <time>2012-11-27T14:46:59Z</time>
      </trkpt>
      <trkpt lat="43.37013" lon="-0.32922">
        <ele>213.07</ele>
        <time>2012-11-27T14:47:07Z</time>
      </trkpt>
      <trkpt lat="43.37006" lon="-0.32932">
        <ele>212.59</ele>
        <time>2012-11-27T14:47:15Z</time>
      </trkpt>
      <trkpt lat="43.37" lon="-0.32943">
        <ele>212.11</ele>
        <time>2012-11-27T14:47:24Z</time>
      </trkpt>
      <trkpt lat="43.36994" lon="-0.32954">
        <ele>212.59</ele>
        <time>2012-11-27T14:47:32Z</time>
      </trkpt>
      <trkpt lat="43.36988" lon="-0.32965">
        <ele>212.11</ele>
        <time>2012-11-27T14:47:41Z</time>
      </trkpt>
      <trkpt lat="43.36983" lon="-0.32975">
        <ele>212.59</ele>
        <time>2012-11-27T14:47:51Z</time>
      </trkpt>
      <trkpt lat="43.36978" lon="-0.32985">
        <ele>212.59</ele>
        <time>2012-11-27T14:47:59Z</time>
      </trkpt>
      <trkpt lat="43.36972" lon="-0.32996">
        <ele>212.11</ele>
        <time>2012-11-27T14:48:07Z</time>
      </trkpt>
      <trkpt lat="43.36966" lon="-0.33008">
        <ele>212.11</ele>
        <time>2012-11-27T14:48:15Z</time>
      </trkpt>
      <trkpt lat="43.36961" lon="-0.33019">
        <ele>213.07</ele>
        <time>2012-11-27T14:48:23Z</time>
      </trkpt>
      <trkpt lat="43.36954" lon="-0.3303">
        <ele>211.63</ele>
        <time>2012-11-27T14:48:31Z</time>
      </trkpt>
      <trkpt lat="43.36947" lon="-0.3304">
        <ele>212.11</ele>
        <time>2012-11-27T14:48:39Z</time>
      </trkpt>
      <trkpt lat="43.36941" lon="-0.33051">
        <ele>212.11</ele>
        <time>2012-11-27T14:48:46Z</time>
      </trkpt>
      <trkpt lat="43.36936" lon="-0.33061">
        <ele>210.67</ele>
        <time>2012-11-27T14:48:53Z</time>
      </trkpt>
      <trkpt lat="43.36931" lon="-0.33072">
        <ele>210.67</ele>
        <time>2012-11-27T14:49:01Z</time>
      </trkpt>
      <trkpt lat="43.36926" lon="-0.33084">
        <ele>211.63</ele>
        <time>2012-11-27T14:49:09Z</time>
      </trkpt>
      <trkpt lat="43.36922" lon="-0.33096">
        <ele>211.63</ele>
        <time>2012-11-27T14:49:18Z</time>
      </trkpt>
      <trkpt lat="43.36918" lon="-0.33109">
        <ele>210.19</ele>
        <time>2012-11-27T14:49:26Z</time>
      </trkpt>
      <trkpt lat="43.36915" lon="-0.33121">
        <ele>210.67</ele>
        <time>2012-11-27T14:49:34Z</time>
      </trkpt>
      <trkpt lat="43.36915" lon="-0.33133">
        <ele>208.26</ele>
        <time>2012-11-27T14:49:43Z</time>
      </trkpt>
      <trkpt lat="43.36923" lon="-0.3314">
        <ele>209.7</ele>
        <time>2012-11-27T14:49:53Z</time>
      </trkpt>
      <trkpt lat="43.3693" lon="-0.33149">
        <ele>209.22</ele>
        <time>2012-11-27T14:51:31Z</time>
      </trkpt>
      <trkpt lat="43.36937" lon="-0.3316">
        <ele>208.74</ele>
        <time>2012-11-27T14:51:39Z</time>
      </trkpt>
      <trkpt lat="43.36942" lon="-0.33171">
        <ele>209.7</ele>
        <time>2012-11-27T14:51:47Z</time>
      </trkpt>
      <trkpt lat="43.36947" lon="-0.33182">
        <ele>209.7</ele>
        <time>2012-11-27T14:51:54Z</time>
      </trkpt>
      <trkpt lat="43.36952" lon="-0.33193">
        <ele>209.7</ele>
        <time>2012-11-27T14:52:01Z</time>
      </trkpt>
      <trkpt lat="43.36957" lon="-0.33203">
        <ele>208.74</ele>
        <time>2012-11-27T14:52:09Z</time>
      </trkpt>
      <trkpt lat="43.36963" lon="-0.33213">
        <ele>209.7</ele>
        <time>2012-11-27T14:52:17Z</time>
      </trkpt>
      <trkpt lat="43.36969" lon="-0.33224">
        <ele>209.7</ele>
        <time>2012-11-27T14:52:25Z</time>
      </trkpt>
      <trkpt lat="43.36975" lon="-0.33234">
        <ele>209.22</ele>
        <time>2012-11-27T14:52:32Z</time>
      </trkpt>
      <trkpt lat="43.36979" lon="-0.33246">
        <ele>208.26</ele>
        <time>2012-11-27T14:52:40Z</time>
      </trkpt>
      <trkpt lat="43.36984" lon="-0.33258">
        <ele>209.22</ele>
        <time>2012-11-27T14:52:48Z</time>
      </trkpt>
      <trkpt lat="43.36988" lon="-0.33268">
        <ele>208.74</ele>
        <time>2012-11-27T14:52:56Z</time>
      </trkpt>
      <trkpt lat="43.36993" lon="-0.33279">
        <ele>209.7</ele>
        <time>2012-11-27T14:53:04Z</time>
      </trkpt>
      <trkpt lat="43.37" lon="-0.3329">
        <ele>209.7</ele>
        <time>2012-11-27T14:53:13Z</time>
      </trkpt>
      <trkpt lat="43.37007" lon="-0.33299">
        <ele>208.74</ele>
        <time>2012-11-27T14:53:21Z</time>
      </trkpt>
      <trkpt lat="43.37011" lon="-0.33309">
        <ele>207.78</ele>
        <time>2012-11-27T14:53:29Z</time>
      </trkpt>
      <trkpt lat="43.37014" lon="-0.33322">
        <ele>208.26</ele>
        <time>2012-11-27T14:53:37Z</time>
      </trkpt>
      <trkpt lat="43.37017" lon="-0.33335">
        <ele>208.74</ele>
        <time>2012-11-27T14:53:46Z</time>
      </trkpt>
      <trkpt lat="43.3702" lon="-0.33347">
        <ele>208.74</ele>
        <time>2012-11-27T14:53:54Z</time>
      </trkpt>
      <trkpt lat="43.37022" lon="-0.33359">
        <ele>209.22</ele>
        <time>2012-11-27T14:54:02Z</time>
      </trkpt>
      <trkpt lat="43.37025" lon="-0.33372">
        <ele>207.78</ele>
        <time>2012-11-27T14:54:11Z</time>
      </trkpt>
      <trkpt lat="43.37028" lon="-0.33384">
        <ele>208.74</ele>
        <time>2012-11-27T14:54:20Z</time>
      </trkpt>
      <trkpt lat="43.3703" lon="-0.33397">
        <ele>209.22</ele>
        <time>2012-11-27T14:54:29Z</time>
      </trkpt>
      <trkpt lat="43.37033" lon="-0.33408">
        <ele>208.74</ele>
        <time>2012-11-27T14:54:40Z</time>
      </trkpt>
      <trkpt lat="43.37035" lon="-0.33421">
        <ele>208.26</ele>
        <time>2012-11-27T14:54:50Z</time>
      </trkpt>
      <trkpt lat="43.37037" lon="-0.33433">
        <ele>208.26</ele>
        <time>2012-11-27T14:54:58Z</time>
      </trkpt>
      <trkpt lat="43.37039" lon="-0.33446">
        <ele>209.22</ele>
        <time>2012-11-27T14:55:06Z</time>
      </trkpt>
      <trkpt lat="43.37041" lon="-0.3346">
        <ele>208.74</ele>
        <time>2012-11-27T14:55:14Z</time>
      </trkpt>
      <trkpt lat="43.37043" lon="-0.33472">
        <ele>208.74</ele>
        <time>2012-11-27T14:55:22Z</time>
      </trkpt>
      <trkpt lat="43.37045" lon="-0.33485">
        <ele>209.7</ele>
        <time>2012-11-27T14:55:30Z</time>
      </trkpt>
      <trkpt lat="43.37046" lon="-0.335">
        <ele>209.7</ele>
        <time>2012-11-27T14:55:38Z</time>
      </trkpt>
      <trkpt lat="43.37047" lon="-0.33513">
        <ele>209.7</ele>
        <time>2012-11-27T14:55:46Z</time>
      </trkpt>
      <trkpt lat="43.37049" lon="-0.33526">
        <ele>209.22</ele>
        <time>2012-11-27T14:55:54Z</time>
      </trkpt>
      <trkpt lat="43.37052" lon="-0.33538">
        <ele>209.7</ele>
        <time>2012-11-27T14:56:02Z</time>
      </trkpt>
      <trkpt lat="43.3706" lon="-0.33545">
        <ele>209.22</ele>
        <time>2012-11-27T14:56:10Z</time>
      </trkpt>
      <trkpt lat="43.3707" lon="-0.33544">
        <ele>209.7</ele>
        <time>2012-11-27T14:56:19Z</time>
      </trkpt>
      <trkpt lat="43.3708" lon="-0.33543">
        <ele>210.67</ele>
        <time>2012-11-27T14:56:28Z</time>
      </trkpt>
      <trkpt lat="43.37091" lon="-0.3354">
        <ele>211.15</ele>
        <time>2012-11-27T14:56:38Z</time>
      </trkpt>
      <trkpt lat="43.37101" lon="-0.33536">
        <ele>212.59</ele>
        <time>2012-11-27T14:56:47Z</time>
      </trkpt>
      <trkpt lat="43.37112" lon="-0.33531">
        <ele>213.55</ele>
        <time>2012-11-27T14:56:58Z</time>
      </trkpt>
      <trkpt lat="43.3712" lon="-0.33534">
        <ele>214.51</ele>
        <time>2012-11-27T14:57:36Z</time>
      </trkpt>
      <trkpt lat="43.37128" lon="-0.33539">
        <ele>214.99</ele>
        <time>2012-11-27T14:57:56Z</time>
      </trkpt>
      <trkpt lat="43.37128" lon="-0.3354">
        <ele>212.11</ele>
        <time>2012-11-27T15:11:50Z</time>
      </trkpt>
      <trkpt lat="43.37131" lon="-0.33555">
        <ele>212.11</ele>
        <time>2012-11-27T15:12:13Z</time>
      </trkpt>
      <trkpt lat="43.37134" lon="-0.33571">
        <ele>212.11</ele>
        <time>2012-11-27T15:12:23Z</time>
      </trkpt>
      <trkpt lat="43.37136" lon="-0.33587">
        <ele>211.63</ele>
        <time>2012-11-27T15:12:32Z</time>
      </trkpt>
      <trkpt lat="43.3714" lon="-0.33602">
        <ele>211.15</ele>
        <time>2012-11-27T15:12:41Z</time>
      </trkpt>
      <trkpt lat="43.37143" lon="-0.33616">
        <ele>210.19</ele>
        <time>2012-11-27T15:12:50Z</time>
      </trkpt>
      <trkpt lat="43.37148" lon="-0.3363">
        <ele>209.22</ele>
        <time>2012-11-27T15:13:01Z</time>
      </trkpt>
      <trkpt lat="43.37151" lon="-0.33644">
        <ele>209.22</ele>
        <time>2012-11-27T15:13:10Z</time>
      </trkpt>
      <trkpt lat="43.37154" lon="-0.33658">
        <ele>208.74</ele>
        <time>2012-11-27T15:13:19Z</time>
      </trkpt>
      <trkpt lat="43.3716" lon="-0.33671">
        <ele>208.74</ele>
        <time>2012-11-27T15:13:28Z</time>
      </trkpt>
      <trkpt lat="43.37165" lon="-0.33683">
        <ele>208.74</ele>
        <time>2012-11-27T15:13:37Z</time>
      </trkpt>
      <trkpt lat="43.3717" lon="-0.33695">
        <ele>208.26</ele>
        <time>2012-11-27T15:13:45Z</time>
      </trkpt>
      <trkpt lat="43.37174" lon="-0.33707">
        <ele>208.26</ele>
        <time>2012-11-27T15:13:54Z</time>
      </trkpt>
      <trkpt lat="43.37178" lon="-0.33718">
        <ele>208.26</ele>
        <time>2012-11-27T15:14:01Z</time>
      </trkpt>
      <trkpt lat="43.3718" lon="-0.33731">
        <ele>207.3</ele>
        <time>2012-11-27T15:14:09Z</time>
      </trkpt>
      <trkpt lat="43.37181" lon="-0.33745">
        <ele>207.78</ele>
        <time>2012-11-27T15:14:17Z</time>
      </trkpt>
      <trkpt lat="43.37181" lon="-0.33759">
        <ele>208.26</ele>
        <time>2012-11-27T15:14:25Z</time>
      </trkpt>
      <trkpt lat="43.37181" lon="-0.33772">
        <ele>208.26</ele>
        <time>2012-11-27T15:14:32Z</time>
      </trkpt>
      <trkpt lat="43.37178" lon="-0.33786">
        <ele>207.78</ele>
        <time>2012-11-27T15:14:40Z</time>
      </trkpt>
      <trkpt lat="43.37175" lon="-0.33798">
        <ele>208.26</ele>
        <time>2012-11-27T15:14:47Z</time>
      </trkpt>
      <trkpt lat="43.3717" lon="-0.33811">
        <ele>207.78</ele>
        <time>2012-11-27T15:14:55Z</time>
      </trkpt>
      <trkpt lat="43.37164" lon="-0.33822">
        <ele>207.78</ele>
        <time>2012-11-27T15:15:03Z</time>
      </trkpt>
      <trkpt lat="43.37159" lon="-0.33834">
        <ele>207.78</ele>
        <time>2012-11-27T15:15:11Z</time>
      </trkpt>
      <trkpt lat="43.37154" lon="-0.33845">
        <ele>207.78</ele>
        <time>2012-11-27T15:15:19Z</time>
      </trkpt>
      <trkpt lat="43.3715" lon="-0.33857">
        <ele>207.78</ele>
        <time>2012-11-27T15:15:26Z</time>
      </trkpt>
      <trkpt lat="43.37145" lon="-0.33867">
        <ele>207.78</ele>
        <time>2012-11-27T15:15:33Z</time>
      </trkpt>
      <trkpt lat="43.37141" lon="-0.33877">
        <ele>207.78</ele>
        <time>2012-11-27T15:15:40Z</time>
      </trkpt>
      <trkpt lat="43.37135" lon="-0.33888">
        <ele>207.3</ele>
        <time>2012-11-27T15:15:47Z</time>
      </trkpt>
      <trkpt lat="43.37128" lon="-0.33898">
        <ele>206.34</ele>
        <time>2012-11-27T15:15:55Z</time>
      </trkpt>
      <trkpt lat="43.3712" lon="-0.33906">
        <ele>206.82</ele>
        <time>2012-11-27T15:16:04Z</time>
      </trkpt>
      <trkpt lat="43.37112" lon="-0.33915">
        <ele>206.34</ele>
        <time>2012-11-27T15:16:13Z</time>
      </trkpt>
      <trkpt lat="43.37108" lon="-0.33927">
        <ele>206.34</ele>
        <time>2012-11-27T15:16:20Z</time>
      </trkpt>
      <trkpt lat="43.37105" lon="-0.3394">
        <ele>206.34</ele>
        <time>2012-11-27T15:16:28Z</time>
      </trkpt>
      <trkpt lat="43.37102" lon="-0.33952">
        <ele>206.82</ele>
        <time>2012-11-27T15:16:35Z</time>
      </trkpt>
      <trkpt lat="43.37101" lon="-0.33966">
        <ele>206.34</ele>
        <time>2012-11-27T15:16:43Z</time>
      </trkpt>
      <trkpt lat="43.37099" lon="-0.33979">
        <ele>206.34</ele>
        <time>2012-11-27T15:16:50Z</time>
      </trkpt>
      <trkpt lat="43.37098" lon="-0.33993">
        <ele>205.38</ele>
        <time>2012-11-27T15:16:58Z</time>
      </trkpt>
      <trkpt lat="43.37096" lon="-0.34007">
        <ele>205.86</ele>
        <time>2012-11-27T15:17:06Z</time>
      </trkpt>
      <trkpt lat="43.37096" lon="-0.3402">
        <ele>205.86</ele>
        <time>2012-11-27T15:17:14Z</time>
      </trkpt>
      <trkpt lat="43.37091" lon="-0.34032">
        <ele>205.86</ele>
        <time>2012-11-27T15:17:22Z</time>
      </trkpt>
      <trkpt lat="43.37087" lon="-0.34045">
        <ele>205.38</ele>
        <time>2012-11-27T15:17:32Z</time>
      </trkpt>
      <trkpt lat="43.37087" lon="-0.34058">
        <ele>205.38</ele>
        <time>2012-11-27T15:17:40Z</time>
      </trkpt>
      <trkpt lat="43.37087" lon="-0.34072">
        <ele>204.9</ele>
        <time>2012-11-27T15:17:48Z</time>
      </trkpt>
      <trkpt lat="43.37089" lon="-0.34086">
        <ele>205.38</ele>
        <time>2012-11-27T15:17:57Z</time>
      </trkpt>
      <trkpt lat="43.3709" lon="-0.34096">
        <ele>205.38</ele>
        <time>2012-11-27T15:18:33Z</time>
      </trkpt>
      <trkpt lat="43.37092" lon="-0.34112">
        <ele>204.42</ele>
        <time>2012-11-27T15:18:51Z</time>
      </trkpt>
      <trkpt lat="43.37096" lon="-0.34125">
        <ele>204.9</ele>
        <time>2012-11-27T15:19:00Z</time>
      </trkpt>
      <trkpt lat="43.37098" lon="-0.34139">
        <ele>204.9</ele>
        <time>2012-11-27T15:19:09Z</time>
      </trkpt>
      <trkpt lat="43.37102" lon="-0.34151">
        <ele>203.94</ele>
        <time>2012-11-27T15:19:17Z</time>
      </trkpt>
      <trkpt lat="43.37105" lon="-0.34163">
        <ele>204.42</ele>
        <time>2012-11-27T15:19:25Z</time>
      </trkpt>
      <trkpt lat="43.37108" lon="-0.34176">
        <ele>203.94</ele>
        <time>2012-11-27T15:19:33Z</time>
      </trkpt>
      <trkpt lat="43.37112" lon="-0.34188">
        <ele>203.46</ele>
        <time>2012-11-27T15:19:41Z</time>
      </trkpt>
      <trkpt lat="43.37115" lon="-0.342">
        <ele>203.46</ele>
        <time>2012-11-27T15:19:49Z</time>
      </trkpt>
      <trkpt lat="43.3712" lon="-0.34213">
        <ele>203.46</ele>
        <time>2012-11-27T15:19:57Z</time>
      </trkpt>
      <trkpt lat="43.37125" lon="-0.34224">
        <ele>202.98</ele>
        <time>2012-11-27T15:20:04Z</time>
      </trkpt>
      <trkpt lat="43.37128" lon="-0.34236">
        <ele>203.46</ele>
        <time>2012-11-27T15:20:11Z</time>
      </trkpt>
      <trkpt lat="43.37132" lon="-0.34249">
        <ele>203.46</ele>
        <time>2012-11-27T15:20:19Z</time>
      </trkpt>
      <trkpt lat="43.37133" lon="-0.34262">
        <ele>203.46</ele>
        <time>2012-11-27T15:20:27Z</time>
      </trkpt>
      <trkpt lat="43.37135" lon="-0.34274">
        <ele>202.98</ele>
        <time>2012-11-27T15:20:34Z</time>
      </trkpt>
      <trkpt lat="43.37137" lon="-0.34288">
        <ele>202.49</ele>
        <time>2012-11-27T15:20:42Z</time>
      </trkpt>
      <trkpt lat="43.37139" lon="-0.34301">
        <ele>203.46</ele>
        <time>2012-11-27T15:20:50Z</time>
      </trkpt>
      <trkpt lat="43.37143" lon="-0.34314">
        <ele>202.98</ele>
        <time>2012-11-27T15:20:58Z</time>
      </trkpt>
      <trkpt lat="43.37146" lon="-0.34326">
        <ele>202.49</ele>
        <time>2012-11-27T15:21:06Z</time>
      </trkpt>
      <trkpt lat="43.37149" lon="-0.34339">
        <ele>202.98</ele>
        <time>2012-11-27T15:21:14Z</time>
      </trkpt>
      <trkpt lat="43.37154" lon="-0.3435">
        <ele>202.49</ele>
        <time>2012-11-27T15:21:22Z</time>
      </trkpt>
      <trkpt lat="43.37156" lon="-0.34362">
        <ele>202.01</ele>
        <time>2012-11-27T15:21:30Z</time>
      </trkpt>
      <trkpt lat="43.37158" lon="-0.34376">
        <ele>202.49</ele>
        <time>2012-11-27T15:21:39Z</time>
      </trkpt>
      <trkpt lat="43.37159" lon="-0.34389">
        <ele>201.53</ele>
        <time>2012-11-27T15:21:47Z</time>
      </trkpt>
      <trkpt lat="43.37161" lon="-0.34402">
        <ele>202.01</ele>
        <time>2012-11-27T15:21:55Z</time>
      </trkpt>
      <trkpt lat="43.37165" lon="-0.34415">
        <ele>202.49</ele>
        <time>2012-11-27T15:22:03Z</time>
      </trkpt>
      <trkpt lat="43.37171" lon="-0.34428">
        <ele>202.01</ele>
        <time>2012-11-27T15:22:11Z</time>
      </trkpt>
      <trkpt lat="43.37177" lon="-0.34437">
        <ele>202.01</ele>
        <time>2012-11-27T15:22:20Z</time>
      </trkpt>
      <trkpt lat="43.37183" lon="-0.34447">
        <ele>202.49</ele>
        <time>2012-11-27T15:22:45Z</time>
      </trkpt>
      <trkpt lat="43.37188" lon="-0.34458">
        <ele>202.01</ele>
        <time>2012-11-27T15:22:54Z</time>
      </trkpt>
      <trkpt lat="43.37193" lon="-0.3447">
        <ele>202.49</ele>
        <time>2012-11-27T15:23:03Z</time>
      </trkpt>
      <trkpt lat="43.37197" lon="-0.34483">
        <ele>201.53</ele>
        <time>2012-11-27T15:23:11Z</time>
      </trkpt>
      <trkpt lat="43.37193" lon="-0.34494">
        <ele>201.53</ele>
        <time>2012-11-27T15:23:20Z</time>
      </trkpt>
      <trkpt lat="43.37185" lon="-0.34499">
        <ele>201.05</ele>
        <time>2012-11-27T15:23:29Z</time>
      </trkpt>
      <trkpt lat="43.37176" lon="-0.34504">
        <ele>200.57</ele>
        <time>2012-11-27T15:23:37Z</time>
      </trkpt>
      <trkpt lat="43.37168" lon="-0.34512">
        <ele>200.09</ele>
        <time>2012-11-27T15:23:45Z</time>
      </trkpt>
      <trkpt lat="43.37175" lon="-0.34509">
        <ele>200.09</ele>
        <time>2012-11-27T15:24:00Z</time>
      </trkpt>
      <trkpt lat="43.37185" lon="-0.345">
        <ele>200.57</ele>
        <time>2012-11-27T15:24:12Z</time>
      </trkpt>
      <trkpt lat="43.37195" lon="-0.345">
        <ele>201.05</ele>
        <time>2012-11-27T15:24:23Z</time>
      </trkpt>
      <trkpt lat="43.37203" lon="-0.34503">
        <ele>201.53</ele>
        <time>2012-11-27T15:24:33Z</time>
      </trkpt>
      <trkpt lat="43.37211" lon="-0.34512">
        <ele>201.05</ele>
        <time>2012-11-27T15:24:42Z</time>
      </trkpt>
      <trkpt lat="43.37216" lon="-0.34523">
        <ele>202.01</ele>
        <time>2012-11-27T15:24:50Z</time>
      </trkpt>
      <trkpt lat="43.37219" lon="-0.34536">
        <ele>202.01</ele>
        <time>2012-11-27T15:24:57Z</time>
      </trkpt>
      <trkpt lat="43.37224" lon="-0.34546">
        <ele>201.53</ele>
        <time>2012-11-27T15:25:06Z</time>
      </trkpt>
      <trkpt lat="43.37228" lon="-0.34558">
        <ele>202.01</ele>
        <time>2012-11-27T15:25:24Z</time>
      </trkpt>
      <trkpt lat="43.37235" lon="-0.34568">
        <ele>201.53</ele>
        <time>2012-11-27T15:25:32Z</time>
      </trkpt>
      <trkpt lat="43.37243" lon="-0.34577">
        <ele>201.05</ele>
        <time>2012-11-27T15:25:40Z</time>
      </trkpt>
      <trkpt lat="43.3725" lon="-0.34585">
        <ele>201.05</ele>
        <time>2012-11-27T15:25:48Z</time>
      </trkpt>
      <trkpt lat="43.37258" lon="-0.34594">
        <ele>201.05</ele>
        <time>2012-11-27T15:25:56Z</time>
      </trkpt>
      <trkpt lat="43.37266" lon="-0.346">
        <ele>201.05</ele>
        <time>2012-11-27T15:26:04Z</time>
      </trkpt>
      <trkpt lat="43.37273" lon="-0.34608">
        <ele>201.05</ele>
        <time>2012-11-27T15:26:12Z</time>
      </trkpt>
      <trkpt lat="43.37282" lon="-0.34614">
        <ele>201.53</ele>
        <time>2012-11-27T15:26:20Z</time>
      </trkpt>
      <trkpt lat="43.37289" lon="-0.34621">
        <ele>201.05</ele>
        <time>2012-11-27T15:26:28Z</time>
      </trkpt>
      <trkpt lat="43.37296" lon="-0.34629">
        <ele>201.05</ele>
        <time>2012-11-27T15:26:36Z</time>
      </trkpt>
      <trkpt lat="43.37302" lon="-0.3464">
        <ele>201.05</ele>
        <time>2012-11-27T15:26:44Z</time>
      </trkpt>
      <trkpt lat="43.37307" lon="-0.34652">
        <ele>201.05</ele>
        <time>2012-11-27T15:26:52Z</time>
      </trkpt>
      <trkpt lat="43.37314" lon="-0.34663">
        <ele>201.53</ele>
        <time>2012-11-27T15:27:00Z</time>
      </trkpt>
      <trkpt lat="43.3732" lon="-0.34673">
        <ele>201.05</ele>
        <time>2012-11-27T15:27:10Z</time>
      </trkpt>
      <trkpt lat="43.37325" lon="-0.34683">
        <ele>201.05</ele>
        <time>2012-11-27T15:27:28Z</time>
      </trkpt>
      <trkpt lat="43.37331" lon="-0.34693">
        <ele>201.53</ele>
        <time>2012-11-27T15:27:36Z</time>
      </trkpt>
      <trkpt lat="43.37335" lon="-0.34703">
        <ele>201.53</ele>
        <time>2012-11-27T15:27:44Z</time>
      </trkpt>
      <trkpt lat="43.3734" lon="-0.34715">
        <ele>201.05</ele>
        <time>2012-11-27T15:27:51Z</time>
      </trkpt>
      <trkpt lat="43.37344" lon="-0.34727">
        <ele>200.57</ele>
        <time>2012-11-27T15:27:59Z</time>
      </trkpt>
      <trkpt lat="43.37346" lon="-0.3474">
        <ele>200.57</ele>
        <time>2012-11-27T15:28:07Z</time>
      </trkpt>
      <trkpt lat="43.37349" lon="-0.34752">
        <ele>200.57</ele>
        <time>2012-11-27T15:28:15Z</time>
      </trkpt>
      <trkpt lat="43.3735" lon="-0.34766">
        <ele>200.09</ele>
        <time>2012-11-27T15:28:24Z</time>
      </trkpt>
      <trkpt lat="43.37351" lon="-0.34779">
        <ele>199.61</ele>
        <time>2012-11-27T15:28:33Z</time>
      </trkpt>
      <trkpt lat="43.37354" lon="-0.34792">
        <ele>199.61</ele>
        <time>2012-11-27T15:28:41Z</time>
      </trkpt>
      <trkpt lat="43.37359" lon="-0.34803">
        <ele>199.61</ele>
        <time>2012-11-27T15:28:51Z</time>
      </trkpt>
      <trkpt lat="43.37366" lon="-0.34813">
        <ele>200.09</ele>
        <time>2012-11-27T15:28:59Z</time>
      </trkpt>
      <trkpt lat="43.37373" lon="-0.34822">
        <ele>200.09</ele>
        <time>2012-11-27T15:29:06Z</time>
      </trkpt>
      <trkpt lat="43.37379" lon="-0.34834">
        <ele>199.61</ele>
        <time>2012-11-27T15:29:14Z</time>
      </trkpt>
      <trkpt lat="43.37386" lon="-0.34844">
        <ele>199.61</ele>
        <time>2012-11-27T15:29:22Z</time>
      </trkpt>
      <trkpt lat="43.37391" lon="-0.34854">
        <ele>199.61</ele>
        <time>2012-11-27T15:29:29Z</time>
      </trkpt>
      <trkpt lat="43.37398" lon="-0.34863">
        <ele>200.09</ele>
        <time>2012-11-27T15:29:36Z</time>
      </trkpt>
      <trkpt lat="43.37405" lon="-0.34872">
        <ele>199.61</ele>
        <time>2012-11-27T15:29:43Z</time>
      </trkpt>
      <trkpt lat="43.37411" lon="-0.3488">
        <ele>198.65</ele>
        <time>2012-11-27T15:29:50Z</time>
      </trkpt>
      <trkpt lat="43.37419" lon="-0.34889">
        <ele>198.17</ele>
        <time>2012-11-27T15:29:57Z</time>
      </trkpt>
      <trkpt lat="43.37426" lon="-0.34895">
        <ele>199.61</ele>
        <time>2012-11-27T15:30:04Z</time>
      </trkpt>
      <trkpt lat="43.37434" lon="-0.34903">
        <ele>198.65</ele>
        <time>2012-11-27T15:30:11Z</time>
      </trkpt>
      <trkpt lat="43.37442" lon="-0.34908">
        <ele>198.17</ele>
        <time>2012-11-27T15:30:18Z</time>
      </trkpt>
      <trkpt lat="43.3745" lon="-0.34914">
        <ele>197.69</ele>
        <time>2012-11-27T15:30:25Z</time>
      </trkpt>
      <trkpt lat="43.37459" lon="-0.3492">
        <ele>198.17</ele>
        <time>2012-11-27T15:30:32Z</time>
      </trkpt>
      <trkpt lat="43.37466" lon="-0.34928">
        <ele>198.17</ele>
        <time>2012-11-27T15:30:39Z</time>
      </trkpt>
      <trkpt lat="43.37474" lon="-0.34935">
        <ele>198.65</ele>
        <time>2012-11-27T15:30:46Z</time>
      </trkpt>
      <trkpt lat="43.37481" lon="-0.34943">
        <ele>198.65</ele>
        <time>2012-11-27T15:30:53Z</time>
      </trkpt>
      <trkpt lat="43.37489" lon="-0.3495">
        <ele>198.65</ele>
        <time>2012-11-27T15:31:01Z</time>
      </trkpt>
      <trkpt lat="43.37498" lon="-0.34957">
        <ele>197.69</ele>
        <time>2012-11-27T15:31:09Z</time>
      </trkpt>
      <trkpt lat="43.37504" lon="-0.34966">
        <ele>198.17</ele>
        <time>2012-11-27T15:31:16Z</time>
      </trkpt>
      <trkpt lat="43.37509" lon="-0.34976">
        <ele>199.13</ele>
        <time>2012-11-27T15:31:24Z</time>
      </trkpt>
      <trkpt lat="43.37509" lon="-0.34987">
        <ele>199.61</ele>
        <time>2012-11-27T15:31:31Z</time>
      </trkpt>
      <trkpt lat="43.37504" lon="-0.34998">
        <ele>199.13</ele>
        <time>2012-11-27T15:31:39Z</time>
      </trkpt>
      <trkpt lat="43.37499" lon="-0.35008">
        <ele>198.65</ele>
        <time>2012-11-27T15:31:47Z</time>
      </trkpt>
      <trkpt lat="43.37492" lon="-0.35019">
        <ele>198.17</ele>
        <time>2012-11-27T15:31:55Z</time>
      </trkpt>
      <trkpt lat="43.37487" lon="-0.35031">
        <ele>197.69</ele>
        <time>2012-11-27T15:32:03Z</time>
      </trkpt>
      <trkpt lat="43.37489" lon="-0.35045">
        <ele>197.69</ele>
        <time>2012-11-27T15:32:11Z</time>
      </trkpt>
      <trkpt lat="43.37493" lon="-0.35058">
        <ele>197.69</ele>
        <time>2012-11-27T15:32:19Z</time>
      </trkpt>
      <trkpt lat="43.37492" lon="-0.35072">
        <ele>197.69</ele>
        <time>2012-11-27T15:32:26Z</time>
      </trkpt>
      <trkpt lat="43.37489" lon="-0.35084">
        <ele>197.21</ele>
        <time>2012-11-27T15:32:34Z</time>
      </trkpt>
      <trkpt lat="43.37484" lon="-0.35095">
        <ele>197.21</ele>
        <time>2012-11-27T15:32:41Z</time>
      </trkpt>
      <trkpt lat="43.3748" lon="-0.35108">
        <ele>197.21</ele>
        <time>2012-11-27T15:32:49Z</time>
      </trkpt>
      <trkpt lat="43.37476" lon="-0.35118">
        <ele>196.73</ele>
        <time>2012-11-27T15:32:56Z</time>
      </trkpt>
      <trkpt lat="43.37471" lon="-0.3513">
        <ele>196.25</ele>
        <time>2012-11-27T15:33:04Z</time>
      </trkpt>
      <trkpt lat="43.37467" lon="-0.35142">
        <ele>195.77</ele>
        <time>2012-11-27T15:33:11Z</time>
      </trkpt>
      <trkpt lat="43.37463" lon="-0.35154">
        <ele>196.73</ele>
        <time>2012-11-27T15:33:18Z</time>
      </trkpt>
      <trkpt lat="43.37458" lon="-0.35166">
        <ele>195.77</ele>
        <time>2012-11-27T15:33:26Z</time>
      </trkpt>
      <trkpt lat="43.37453" lon="-0.35178">
        <ele>195.77</ele>
        <time>2012-11-27T15:33:34Z</time>
      </trkpt>
      <trkpt lat="43.37448" lon="-0.3519">
        <ele>195.28</ele>
        <time>2012-11-27T15:33:41Z</time>
      </trkpt>
      <trkpt lat="43.37444" lon="-0.35202">
        <ele>196.25</ele>
        <time>2012-11-27T15:33:49Z</time>
      </trkpt>
      <trkpt lat="43.3744" lon="-0.35216">
        <ele>195.28</ele>
        <time>2012-11-27T15:33:57Z</time>
      </trkpt>
      <trkpt lat="43.37436" lon="-0.35229">
        <ele>195.28</ele>
        <time>2012-11-27T15:34:05Z</time>
      </trkpt>
      <trkpt lat="43.37431" lon="-0.3524">
        <ele>195.28</ele>
        <time>2012-11-27T15:34:12Z</time>
      </trkpt>
      <trkpt lat="43.37427" lon="-0.35253">
        <ele>195.28</ele>
        <time>2012-11-27T15:34:19Z</time>
      </trkpt>
      <trkpt lat="43.37424" lon="-0.35266">
        <ele>195.28</ele>
        <time>2012-11-27T15:34:27Z</time>
      </trkpt>
      <trkpt lat="43.37421" lon="-0.35279">
        <ele>194.8</ele>
        <time>2012-11-27T15:34:35Z</time>
      </trkpt>
      <trkpt lat="43.37424" lon="-0.35292">
        <ele>193.84</ele>
        <time>2012-11-27T15:34:43Z</time>
      </trkpt>
      <trkpt lat="43.37432" lon="-0.35301">
        <ele>193.84</ele>
        <time>2012-11-27T15:34:51Z</time>
      </trkpt>
      <trkpt lat="43.37433" lon="-0.35312">
        <ele>193.84</ele>
        <time>2012-11-27T15:35:29Z</time>
      </trkpt>
      <trkpt lat="43.37426" lon="-0.3532">
        <ele>194.32</ele>
        <time>2012-11-27T15:35:37Z</time>
      </trkpt>
      <trkpt lat="43.37419" lon="-0.35327">
        <ele>193.84</ele>
        <time>2012-11-27T15:35:45Z</time>
      </trkpt>
      <trkpt lat="43.37412" lon="-0.35336">
        <ele>193.36</ele>
        <time>2012-11-27T15:35:53Z</time>
      </trkpt>
      <trkpt lat="43.37404" lon="-0.35344">
        <ele>193.84</ele>
        <time>2012-11-27T15:36:01Z</time>
      </trkpt>
      <trkpt lat="43.37397" lon="-0.35351">
        <ele>193.84</ele>
        <time>2012-11-27T15:36:09Z</time>
      </trkpt>
      <trkpt lat="43.37389" lon="-0.35359">
        <ele>193.84</ele>
        <time>2012-11-27T15:36:17Z</time>
      </trkpt>
      <trkpt lat="43.37382" lon="-0.35368">
        <ele>193.84</ele>
        <time>2012-11-27T15:36:26Z</time>
      </trkpt>
      <trkpt lat="43.37375" lon="-0.35377">
        <ele>193.84</ele>
        <time>2012-11-27T15:36:34Z</time>
      </trkpt>
      <trkpt lat="43.37368" lon="-0.35385">
        <ele>194.32</ele>
        <time>2012-11-27T15:36:42Z</time>
      </trkpt>
      <trkpt lat="43.37359" lon="-0.35391">
        <ele>194.32</ele>
        <time>2012-11-27T15:36:52Z</time>
      </trkpt>
      <trkpt lat="43.37353" lon="-0.35402">
        <ele>193.84</ele>
        <time>2012-11-27T15:37:01Z</time>
      </trkpt>
      <trkpt lat="43.37346" lon="-0.35411">
        <ele>193.84</ele>
        <time>2012-11-27T15:37:09Z</time>
      </trkpt>
      <trkpt lat="43.3734" lon="-0.35422">
        <ele>193.84</ele>
        <time>2012-11-27T15:37:17Z</time>
      </trkpt>
      <trkpt lat="43.37334" lon="-0.35432">
        <ele>193.84</ele>
        <time>2012-11-27T15:37:25Z</time>
      </trkpt>
      <trkpt lat="43.37328" lon="-0.35443">
        <ele>193.84</ele>
        <time>2012-11-27T15:37:33Z</time>
      </trkpt>
      <trkpt lat="43.37321" lon="-0.35454">
        <ele>193.84</ele>
        <time>2012-11-27T15:37:42Z</time>
      </trkpt>
      <trkpt lat="43.37315" lon="-0.35466">
        <ele>193.84</ele>
        <time>2012-11-27T15:37:51Z</time>
      </trkpt>
      <trkpt lat="43.37309" lon="-0.35478">
        <ele>194.32</ele>
        <time>2012-11-27T15:38:00Z</time>
      </trkpt>
      <trkpt lat="43.37304" lon="-0.35489">
        <ele>193.84</ele>
        <time>2012-11-27T15:38:08Z</time>
      </trkpt>
      <trkpt lat="43.37299" lon="-0.35501">
        <ele>193.84</ele>
        <time>2012-11-27T15:38:16Z</time>
      </trkpt>
      <trkpt lat="43.37294" lon="-0.35512">
        <ele>193.84</ele>
        <time>2012-11-27T15:38:24Z</time>
      </trkpt>
      <trkpt lat="43.37289" lon="-0.35523">
        <ele>193.84</ele>
        <time>2012-11-27T15:38:32Z</time>
      </trkpt>
      <trkpt lat="43.37282" lon="-0.35534">
        <ele>193.84</ele>
        <time>2012-11-27T15:38:40Z</time>
      </trkpt>
      <trkpt lat="43.37276" lon="-0.35544">
        <ele>194.32</ele>
        <time>2012-11-27T15:38:48Z</time>
      </trkpt>
      <trkpt lat="43.3727" lon="-0.35555">
        <ele>194.32</ele>
        <time>2012-11-27T15:38:56Z</time>
      </trkpt>
      <trkpt lat="43.37265" lon="-0.35566">
        <ele>193.84</ele>
        <time>2012-11-27T15:39:05Z</time>
      </trkpt>
      <trkpt lat="43.37255" lon="-0.35569">
        <ele>193.84</ele>
        <time>2012-11-27T15:39:25Z</time>
      </trkpt>
      <trkpt lat="43.37249" lon="-0.35578">
        <ele>194.32</ele>
        <time>2012-11-27T15:39:34Z</time>
      </trkpt>
      <trkpt lat="43.37243" lon="-0.35588">
        <ele>194.8</ele>
        <time>2012-11-27T15:39:44Z</time>
      </trkpt>
      <trkpt lat="43.37235" lon="-0.35597">
        <ele>194.8</ele>
        <time>2012-11-27T15:39:53Z</time>
      </trkpt>
      <trkpt lat="43.37228" lon="-0.35605">
        <ele>196.25</ele>
        <time>2012-11-27T15:40:02Z</time>
      </trkpt>
      <trkpt lat="43.37221" lon="-0.35611">
        <ele>197.21</ele>
        <time>2012-11-27T15:40:14Z</time>
      </trkpt>
      <trkpt lat="43.37215" lon="-0.35622">
        <ele>197.21</ele>
        <time>2012-11-27T15:40:27Z</time>
      </trkpt>
      <trkpt lat="43.37208" lon="-0.35631">
        <ele>197.69</ele>
        <time>2012-11-27T15:40:43Z</time>
      </trkpt>
      <trkpt lat="43.37201" lon="-0.3564">
        <ele>198.17</ele>
        <time>2012-11-27T15:40:52Z</time>
      </trkpt>
      <trkpt lat="43.37194" lon="-0.35649">
        <ele>197.69</ele>
        <time>2012-11-27T15:41:01Z</time>
      </trkpt>
      <trkpt lat="43.37187" lon="-0.35657">
        <ele>197.69</ele>
        <time>2012-11-27T15:41:09Z</time>
      </trkpt>
      <trkpt lat="43.37181" lon="-0.35667">
        <ele>198.65</ele>
        <time>2012-11-27T15:41:17Z</time>
      </trkpt>
      <trkpt lat="43.37173" lon="-0.35674">
        <ele>198.65</ele>
        <time>2012-11-27T15:41:25Z</time>
      </trkpt>
      <trkpt lat="43.37165" lon="-0.35684">
        <ele>199.13</ele>
        <time>2012-11-27T15:41:34Z</time>
      </trkpt>
      <trkpt lat="43.37159" lon="-0.35694">
        <ele>198.65</ele>
        <time>2012-11-27T15:41:42Z</time>
      </trkpt>
      <trkpt lat="43.37154" lon="-0.35704">
        <ele>198.65</ele>
        <time>2012-11-27T15:41:50Z</time>
      </trkpt>
      <trkpt lat="43.37147" lon="-0.35714">
        <ele>198.65</ele>
        <time>2012-11-27T15:41:58Z</time>
      </trkpt>
      <trkpt lat="43.37141" lon="-0.35725">
        <ele>198.65</ele>
        <time>2012-11-27T15:42:06Z</time>
      </trkpt>
      <trkpt lat="43.37134" lon="-0.35735">
        <ele>198.65</ele>
        <time>2012-11-27T15:42:14Z</time>
      </trkpt>
      <trkpt lat="43.37127" lon="-0.35745">
        <ele>198.17</ele>
        <time>2012-11-27T15:42:23Z</time>
      </trkpt>
      <trkpt lat="43.37121" lon="-0.35754">
        <ele>198.17</ele>
        <time>2012-11-27T15:42:31Z</time>
      </trkpt>
      <trkpt lat="43.37114" lon="-0.35764">
        <ele>198.17</ele>
        <time>2012-11-27T15:42:39Z</time>
      </trkpt>
      <trkpt lat="43.37108" lon="-0.35774">
        <ele>198.17</ele>
        <time>2012-11-27T15:42:47Z</time>
      </trkpt>
      <trkpt lat="43.37102" lon="-0.35784">
        <ele>198.17</ele>
        <time>2012-11-27T15:42:55Z</time>
      </trkpt>
      <trkpt lat="43.37096" lon="-0.35794">
        <ele>198.17</ele>
        <time>2012-11-27T15:43:03Z</time>
      </trkpt>
      <trkpt lat="43.37089" lon="-0.35803">
        <ele>197.69</ele>
        <time>2012-11-27T15:43:11Z</time>
      </trkpt>
      <trkpt lat="43.37082" lon="-0.35812">
        <ele>197.21</ele>
        <time>2012-11-27T15:43:19Z</time>
      </trkpt>
      <trkpt lat="43.37076" lon="-0.35822">
        <ele>197.21</ele>
        <time>2012-11-27T15:43:27Z</time>
      </trkpt>
      <trkpt lat="43.3707" lon="-0.35834">
        <ele>197.21</ele>
        <time>2012-11-27T15:43:35Z</time>
      </trkpt>
      <trkpt lat="43.37064" lon="-0.35843">
        <ele>196.73</ele>
        <time>2012-11-27T15:43:43Z</time>
      </trkpt>
      <trkpt lat="43.37058" lon="-0.35853">
        <ele>196.25</ele>
        <time>2012-11-27T15:43:51Z</time>
      </trkpt>
      <trkpt lat="43.37051" lon="-0.35862">
        <ele>196.25</ele>
        <time>2012-11-27T15:43:59Z</time>
      </trkpt>
      <trkpt lat="43.37045" lon="-0.35871">
        <ele>195.77</ele>
        <time>2012-11-27T15:44:06Z</time>
      </trkpt>
      <trkpt lat="43.37038" lon="-0.3588">
        <ele>195.77</ele>
        <time>2012-11-27T15:44:14Z</time>
      </trkpt>
      <trkpt lat="43.37032" lon="-0.35888">
        <ele>195.77</ele>
        <time>2012-11-27T15:44:22Z</time>
      </trkpt>
      <trkpt lat="43.37025" lon="-0.35898">
        <ele>195.77</ele>
        <time>2012-11-27T15:44:30Z</time>
      </trkpt>
      <trkpt lat="43.37017" lon="-0.35906">
        <ele>195.77</ele>
        <time>2012-11-27T15:44:38Z</time>
      </trkpt>
      <trkpt lat="43.37009" lon="-0.35914">
        <ele>195.77</ele>
        <time>2012-11-27T15:44:46Z</time>
      </trkpt>
      <trkpt lat="43.37001" lon="-0.35923">
        <ele>196.25</ele>
        <time>2012-11-27T15:44:54Z</time>
      </trkpt>
      <trkpt lat="43.36993" lon="-0.35929">
        <ele>196.25</ele>
        <time>2012-11-27T15:45:02Z</time>
      </trkpt>
      <trkpt lat="43.36986" lon="-0.35936">
        <ele>196.25</ele>
        <time>2012-11-27T15:45:10Z</time>
      </trkpt>
      <trkpt lat="43.36977" lon="-0.35943">
        <ele>196.73</ele>
        <time>2012-11-27T15:45:18Z</time>
      </trkpt>
      <trkpt lat="43.36969" lon="-0.3595">
        <ele>197.21</ele>
        <time>2012-11-27T15:45:26Z</time>
      </trkpt>
      <trkpt lat="43.36961" lon="-0.35957">
        <ele>196.73</ele>
        <time>2012-11-27T15:45:34Z</time>
      </trkpt>
      <trkpt lat="43.36953" lon="-0.35965">
        <ele>197.21</ele>
        <time>2012-11-27T15:45:42Z</time>
      </trkpt>
      <trkpt lat="43.36945" lon="-0.35973">
        <ele>198.17</ele>
        <time>2012-11-27T15:45:50Z</time>
      </trkpt>
      <trkpt lat="43.36937" lon="-0.35979">
        <ele>198.17</ele>
        <time>2012-11-27T15:45:58Z</time>
      </trkpt>
      <trkpt lat="43.36929" lon="-0.35987">
        <ele>197.69</ele>
        <time>2012-11-27T15:46:06Z</time>
      </trkpt>
      <trkpt lat="43.36923" lon="-0.35996">
        <ele>198.17</ele>
        <time>2012-11-27T15:46:14Z</time>
      </trkpt>
      <trkpt lat="43.36917" lon="-0.36006">
        <ele>197.21</ele>
        <time>2012-11-27T15:46:22Z</time>
      </trkpt>
      <trkpt lat="43.3691" lon="-0.36014">
        <ele>196.73</ele>
        <time>2012-11-27T15:46:30Z</time>
      </trkpt>
      <trkpt lat="43.36903" lon="-0.36022">
        <ele>194.8</ele>
        <time>2012-11-27T15:46:39Z</time>
      </trkpt>
      <trkpt lat="43.36893" lon="-0.36023">
        <ele>194.8</ele>
        <time>2012-11-27T15:46:49Z</time>
      </trkpt>
      <trkpt lat="43.36884" lon="-0.36032">
        <ele>193.36</ele>
        <time>2012-11-27T15:46:59Z</time>
      </trkpt>
      <trkpt lat="43.36878" lon="-0.36042">
        <ele>192.4</ele>
        <time>2012-11-27T15:47:09Z</time>
      </trkpt>
      <trkpt lat="43.36874" lon="-0.36055">
        <ele>191.92</ele>
        <time>2012-11-27T15:47:21Z</time>
      </trkpt>
      <trkpt lat="43.36867" lon="-0.36071">
        <ele>192.4</ele>
        <time>2012-11-27T15:47:33Z</time>
      </trkpt>
      <trkpt lat="43.36859" lon="-0.36075">
        <ele>192.4</ele>
        <time>2012-11-27T15:47:46Z</time>
      </trkpt>
      <trkpt lat="43.3685" lon="-0.36074">
        <ele>192.4</ele>
        <time>2012-11-27T15:47:56Z</time>
      </trkpt>
      <trkpt lat="43.36842" lon="-0.36071">
        <ele>192.88</ele>
        <time>2012-11-27T15:48:06Z</time>
      </trkpt>
      <trkpt lat="43.36832" lon="-0.36067">
        <ele>193.36</ele>
        <time>2012-11-27T15:48:16Z</time>
      </trkpt>
      <trkpt lat="43.36824" lon="-0.36061">
        <ele>193.36</ele>
        <time>2012-11-27T15:48:26Z</time>
      </trkpt>
      <trkpt lat="43.36817" lon="-0.36053">
        <ele>193.36</ele>
        <time>2012-11-27T15:48:36Z</time>
      </trkpt>
      <trkpt lat="43.3681" lon="-0.36041">
        <ele>192.4</ele>
        <time>2012-11-27T15:48:47Z</time>
      </trkpt>
      <trkpt lat="43.36808" lon="-0.36028">
        <ele>192.88</ele>
        <time>2012-11-27T15:48:58Z</time>
      </trkpt>
      <trkpt lat="43.3681" lon="-0.36015">
        <ele>192.88</ele>
        <time>2012-11-27T15:49:10Z</time>
      </trkpt>
      <trkpt lat="43.36813" lon="-0.35999">
        <ele>193.36</ele>
        <time>2012-11-27T15:49:21Z</time>
      </trkpt>
      <trkpt lat="43.36814" lon="-0.35983">
        <ele>192.88</ele>
        <time>2012-11-27T15:49:31Z</time>
      </trkpt>
      <trkpt lat="43.36808" lon="-0.35971">
        <ele>193.36</ele>
        <time>2012-11-27T15:49:40Z</time>
      </trkpt>
      <trkpt lat="43.36802" lon="-0.3596">
        <ele>193.84</ele>
        <time>2012-11-27T15:49:49Z</time>
      </trkpt>
      <trkpt lat="43.36795" lon="-0.35949">
        <ele>193.36</ele>
        <time>2012-11-27T15:49:59Z</time>
      </trkpt>
      <trkpt lat="43.36786" lon="-0.3594">
        <ele>193.36</ele>
        <time>2012-11-27T15:50:09Z</time>
      </trkpt>
      <trkpt lat="43.36777" lon="-0.35932">
        <ele>192.88</ele>
        <time>2012-11-27T15:50:20Z</time>
      </trkpt>
      <trkpt lat="43.36769" lon="-0.35923">
        <ele>193.84</ele>
        <time>2012-11-27T15:50:30Z</time>
      </trkpt>
      <trkpt lat="43.36763" lon="-0.35915">
        <ele>193.84</ele>
        <time>2012-11-27T15:50:40Z</time>
      </trkpt>
      <trkpt lat="43.36753" lon="-0.35905">
        <ele>193.36</ele>
        <time>2012-11-27T15:50:49Z</time>
      </trkpt>
      <trkpt lat="43.36746" lon="-0.35897">
        <ele>193.36</ele>
        <time>2012-11-27T15:50:56Z</time>
      </trkpt>
      <trkpt lat="43.36738" lon="-0.35889">
        <ele>193.36</ele>
        <time>2012-11-27T15:51:04Z</time>
      </trkpt>
      <trkpt lat="43.36728" lon="-0.35882">
        <ele>193.36</ele>
        <time>2012-11-27T15:51:13Z</time>
      </trkpt>
      <trkpt lat="43.36719" lon="-0.35877">
        <ele>193.36</ele>
        <time>2012-11-27T15:51:22Z</time>
      </trkpt>
      <trkpt lat="43.3671" lon="-0.35871">
        <ele>193.36</ele>
        <time>2012-11-27T15:51:32Z</time>
      </trkpt>
      <trkpt lat="43.367" lon="-0.35867">
        <ele>193.36</ele>
        <time>2012-11-27T15:51:41Z</time>
      </trkpt>
      <trkpt lat="43.36692" lon="-0.35861">
        <ele>194.32</ele>
        <time>2012-11-27T15:51:51Z</time>
      </trkpt>
      <trkpt lat="43.36683" lon="-0.35854">
        <ele>194.32</ele>
        <time>2012-11-27T15:52:00Z</time>
      </trkpt>
      <trkpt lat="43.36675" lon="-0.35848">
        <ele>194.32</ele>
        <time>2012-11-27T15:52:08Z</time>
      </trkpt>
      <trkpt lat="43.36666" lon="-0.35841">
        <ele>194.32</ele>
        <time>2012-11-27T15:52:17Z</time>
      </trkpt>
      <trkpt lat="43.36658" lon="-0.35835">
        <ele>194.32</ele>
        <time>2012-11-27T15:52:26Z</time>
      </trkpt>
      <trkpt lat="43.36648" lon="-0.35828">
        <ele>194.32</ele>
        <time>2012-11-27T15:52:35Z</time>
      </trkpt>
      <trkpt lat="43.3664" lon="-0.35821">
        <ele>193.84</ele>
        <time>2012-11-27T15:52:44Z</time>
      </trkpt>
      <trkpt lat="43.36633" lon="-0.35812">
        <ele>193.84</ele>
        <time>2012-11-27T15:52:52Z</time>
      </trkpt>
      <trkpt lat="43.36628" lon="-0.35802">
        <ele>193.84</ele>
        <time>2012-11-27T15:53:01Z</time>
      </trkpt>
      <trkpt lat="43.36624" lon="-0.35789">
        <ele>193.84</ele>
        <time>2012-11-27T15:53:11Z</time>
      </trkpt>
      <trkpt lat="43.36618" lon="-0.35777">
        <ele>193.84</ele>
        <time>2012-11-27T15:53:20Z</time>
      </trkpt>
      <trkpt lat="43.36613" lon="-0.35765">
        <ele>194.32</ele>
        <time>2012-11-27T15:53:28Z</time>
      </trkpt>
      <trkpt lat="43.36607" lon="-0.35753">
        <ele>194.32</ele>
        <time>2012-11-27T15:53:38Z</time>
      </trkpt>
      <trkpt lat="43.366" lon="-0.35743">
        <ele>193.84</ele>
        <time>2012-11-27T15:53:47Z</time>
      </trkpt>
      <trkpt lat="43.36597" lon="-0.35729">
        <ele>194.32</ele>
        <time>2012-11-27T15:53:56Z</time>
      </trkpt>
      <trkpt lat="43.36592" lon="-0.35713">
        <ele>194.8</ele>
        <time>2012-11-27T15:54:07Z</time>
      </trkpt>
      <trkpt lat="43.36587" lon="-0.35701">
        <ele>194.32</ele>
        <time>2012-11-27T15:54:16Z</time>
      </trkpt>
      <trkpt lat="43.36583" lon="-0.35688">
        <ele>194.32</ele>
        <time>2012-11-27T15:54:29Z</time>
      </trkpt>
      <trkpt lat="43.36576" lon="-0.35677">
        <ele>194.32</ele>
        <time>2012-11-27T15:54:40Z</time>
      </trkpt>
      <trkpt lat="43.36568" lon="-0.35667">
        <ele>195.28</ele>
        <time>2012-11-27T15:54:49Z</time>
      </trkpt>
      <trkpt lat="43.36561" lon="-0.35659">
        <ele>194.32</ele>
        <time>2012-11-27T15:54:58Z</time>
      </trkpt>
      <trkpt lat="43.36555" lon="-0.35648">
        <ele>195.28</ele>
        <time>2012-11-27T15:55:07Z</time>
      </trkpt>
      <trkpt lat="43.36554" lon="-0.35635">
        <ele>195.77</ele>
        <time>2012-11-27T15:55:16Z</time>
      </trkpt>
      <trkpt lat="43.36554" lon="-0.35622">
        <ele>196.25</ele>
        <time>2012-11-27T15:55:36Z</time>
      </trkpt>
      <trkpt lat="43.36556" lon="-0.35609">
        <ele>194.32</ele>
        <time>2012-11-27T15:55:44Z</time>
      </trkpt>
      <trkpt lat="43.3655" lon="-0.356">
        <ele>194.32</ele>
        <time>2012-11-27T15:55:52Z</time>
      </trkpt>
      <trkpt lat="43.36546" lon="-0.35594">
        <ele>193.84</ele>
        <time>2012-11-27T15:57:10Z</time>
      </trkpt>
    </trkseg>
  </trk>
</gpx>